BY4406 / G-OOBD 7700 Squawk Report (21st of September, 2017)

Time Lat Lon Altitude Heading Speed Vertical Rate
2017-09-21 09:49:29 GMT 51.15397 -0.18276 0 351 13 0
2017-09-21 09:49:24 GMT 51.15368 -0.18267 0 345 12 0
2017-09-21 09:49:15 GMT 51.15328 -0.18254 0 348 11 0
2017-09-21 09:49:13 GMT 51.15316 -0.18248 0 348 11 0
2017-09-21 09:49:03 GMT 51.15271 -0.18231 0 348 11 0
2017-09-21 09:48:58 GMT 51.15247 -0.18227 0 351 11 0
2017-09-21 09:48:52 GMT 51.15218 -0.18225 0 14 11 0
2017-09-21 09:48:46 GMT 51.15197 -0.18242 0 53 12 0
2017-09-21 09:48:43 GMT 51.15189 -0.18263 0 78 12 0
2017-09-21 09:48:34 GMT 51.15184 -0.18332 0 81 12 0
2017-09-21 09:48:32 GMT 51.15183 -0.18346 0 78 13 0
2017-09-21 09:48:26 GMT 51.15176 -0.18398 0 78 13 0
2017-09-21 09:48:23 GMT 51.15172 -0.18429 0 78 12 0
2017-09-21 09:48:15 GMT 51.15163 -0.18489 0 75 12 0
2017-09-21 09:48:12 GMT 51.15160 -0.18516 0 78 12 0
2017-09-21 09:48:05 GMT 51.15152 -0.18572 0 78 12 0
2017-09-21 09:48:02 GMT 51.15148 -0.18595 0 78 12 0
2017-09-21 09:47:55 GMT 51.15140 -0.18654 0 78 12 0
2017-09-21 09:47:46 GMT 51.15130 -0.18730 0 78 13 0
2017-09-21 09:47:39 GMT 51.15122 -0.18786 0 75 13 0
2017-09-21 09:47:32 GMT 51.15112 -0.18850 0 78 14 0
2017-09-21 09:47:30 GMT 51.15110 -0.18869 0 78 14 0
2017-09-21 09:47:19 GMT 51.15097 -0.18967 0 78 14 0
2017-09-21 09:47:11 GMT 51.15087 -0.19039 0 78 14 0
2017-09-21 09:47:09 GMT 51.15084 -0.19060 0 78 13 0
2017-09-21 09:47:02 GMT 51.15075 -0.19127 0 78 13 0
2017-09-21 09:46:51 GMT 51.15063 -0.19215 0 78 12 0
2017-09-21 09:46:49 GMT 51.15060 -0.19232 0 75 12 0
2017-09-21 09:46:40 GMT 51.15051 -0.19302 0 75 12 0
2017-09-21 09:46:36 GMT 51.15047 -0.19333 0 78 12 0
2017-09-21 09:46:27 GMT 51.15038 -0.19402 0 78 12 0
2017-09-21 09:46:22 GMT 51.15032 -0.19445 0 78 12 0
2017-09-21 09:46:20 GMT 51.15029 -0.19458 0 78 12 0
2017-09-21 09:46:11 GMT 51.15021 -0.19526 0 73 13 0
2017-09-21 09:46:09 GMT 51.15017 -0.19546 0 78 12 0
2017-09-21 09:46:03 GMT 51.15011 -0.19590 0 78 13 0
2017-09-21 09:45:59 GMT 51.15007 -0.19625 0 78 13 0
2017-09-21 09:45:51 GMT 51.14996 -0.19699 0 78 14 0
2017-09-21 09:45:47 GMT 51.14992 -0.19736 0 78 14 0
2017-09-21 09:45:37 GMT 51.14978 -0.19826 0 78 14 0
2017-09-21 09:45:35 GMT 51.14975 -0.19850 0 78 13 0
2017-09-21 09:45:26 GMT 51.14964 -0.19930 0 78 13 0
2017-09-21 09:45:24 GMT 51.14962 -0.19942 0 78 13 0
2017-09-21 09:45:17 GMT 51.14954 -0.20002 0 78 12 0
2017-09-21 09:45:09 GMT 51.14946 -0.20067 0 78 12 0
2017-09-21 09:45:06 GMT 51.14943 -0.20089 0 78 11 0
2017-09-21 09:45:00 GMT 51.14936 -0.20134 0 75 11 0
2017-09-21 09:44:54 GMT 51.14931 -0.20174 0 75 11 0
2017-09-21 09:44:46 GMT 51.14924 -0.20229 0 78 10 0
2017-09-21 09:44:44 GMT 51.14922 -0.20239 0 78 10 0
2017-09-21 09:44:34 GMT 51.14913 -0.20304 0 75 9 0
2017-09-21 09:44:22 GMT 51.14904 -0.20370 0 78 8 0
2017-09-21 09:44:13 GMT 51.14897 -0.20418 0 81 8 0
2017-09-21 09:44:02 GMT 51.14890 -0.20471 0 81 7 0
2017-09-21 09:43:55 GMT 51.14886 -0.20498 0 81 6 0
2017-09-21 09:43:52 GMT 51.14884 -0.20510 0 81 6 0
2017-09-21 09:43:08 GMT 51.14878 -0.20557 0 81 0 0
2017-09-21 09:42:43 GMT 51.14877 -0.20558 0 81 0 0
2017-09-21 09:42:07 GMT 51.14877 -0.20557 0 81 0 0
2017-09-21 09:41:37 GMT 51.14877 -0.20557 0 81 0 0
2017-09-21 09:40:57 GMT 51.14878 -0.20557 0 81 0 0
2017-09-21 09:40:52 GMT 51.14877 -0.20558 0 81 0 0
2017-09-21 09:40:45 GMT 51.14877 -0.20563 0 81 2 0
2017-09-21 09:40:42 GMT 51.14877 -0.20571 0 81 5 0
2017-09-21 09:40:31 GMT 51.14852 -0.20629 0 33 12 0
2017-09-21 09:40:17 GMT 51.14791 -0.20681 0 30 14 0
2017-09-21 09:40:07 GMT 51.14738 -0.20726 0 5 14 0
2017-09-21 09:39:59 GMT 51.14697 -0.20687 0 295 16 0
2017-09-21 09:39:55 GMT 51.14687 -0.20645 0 289 20 0
2017-09-21 09:39:48 GMT 51.14662 -0.20515 0 286 33 0
2017-09-21 09:39:43 GMT 51.14647 -0.20416 0 278 37 0
2017-09-21 09:39:37 GMT 51.14651 -0.20223 0 258 46 0
2017-09-21 09:39:35 GMT 51.14657 -0.20176 0 258 48 0
2017-09-21 09:39:24 GMT 51.14725 -0.19676 0 255 80 0
2017-09-21 09:39:16 GMT 51.14799 -0.19136 0 258 115 0
2017-09-21 09:39:04 GMT 51.14950 -0.18059 100 258 144 -384
2017-09-21 09:38:54 GMT 51.15085 -0.17044 200 258 143 -896
2017-09-21 09:38:46 GMT 51.15202 -0.16197 300 258 140 -576
2017-09-21 09:38:44 GMT 51.15230 -0.16006 325 259 140 -640
2017-09-21 09:38:35 GMT 51.15369 -0.14999 425 257 139 -576
2017-09-21 09:38:24 GMT 51.15518 -0.13941 550 259 141 -960
2017-09-21 09:38:13 GMT 51.15658 -0.12894 700 258 143 -704
2017-09-21 09:38:03 GMT 51.15825 -0.11781 825 258 145 -576
2017-09-21 09:38:03 GMT 51.15807 -0.11884 825 258 145 -320
2017-09-21 09:38:02 GMT 51.15830 -0.11736 850 258 145 -1088
2017-09-21 09:38:01 GMT 51.15839 -0.11677 850 258 145 -576
2017-09-21 09:37:52 GMT 51.15970 -0.10681 975 259 146 -896
2017-09-21 09:37:42 GMT 51.16113 -0.09591 1,125 258 148 -832
2017-09-21 09:37:33 GMT 51.16251 -0.08633 1,250 258 148 -704
2017-09-21 09:37:31 GMT 51.16278 -0.08462 1,250 258 149 -704
2017-09-21 09:37:23 GMT 51.16388 -0.07638 1,375 257 150 -896
2017-09-21 09:37:20 GMT 51.16435 -0.07301 1,425 259 150 -704
2017-09-21 09:37:17 GMT 51.16473 -0.06973 1,450 260 153 -768
2017-09-21 09:37:14 GMT 51.16512 -0.06659 1,500 259 153 -768
2017-09-21 09:37:12 GMT 51.16544 -0.06384 1,525 258 153 -1088
2017-09-21 09:37:10 GMT 51.16575 -0.06165 1,550 257 153 -768
2017-09-21 09:37:07 GMT 51.16622 -0.05829 1,600 258 152 -704
2017-09-21 09:37:03 GMT 51.16695 -0.05330 1,650 258 153 -768
2017-09-21 09:37:01 GMT 51.16708 -0.05226 1,675 258 154 -704
2017-09-21 09:36:59 GMT 51.16750 -0.04959 1,700 257 154 -1152
2017-09-21 09:36:57 GMT 51.16789 -0.04684 1,750 256 152 -768
2017-09-21 09:36:54 GMT 51.16832 -0.04432 1,775 256 151 -960
2017-09-21 09:36:50 GMT 51.16905 -0.03979 1,825 256 148 -896
2017-09-21 09:36:48 GMT 51.16933 -0.03786 1,850 256 149 -704
2017-09-21 09:36:46 GMT 51.16966 -0.03586 1,875 257 149 -832
2017-09-21 09:36:44 GMT 51.17008 -0.03304 1,925 259 150 -512
2017-09-21 09:36:41 GMT 51.17047 -0.02992 1,950 260 151 -704
2017-09-21 09:36:38 GMT 51.17084 -0.02687 1,975 260 149 -896
2017-09-21 09:36:35 GMT 51.17125 -0.02346 2,025 260 147 -960
2017-09-21 09:36:33 GMT 51.17148 -0.02144 2,050 259 144 -768
2017-09-21 09:36:31 GMT 51.17175 -0.01930 2,100 256 133 -832
2017-09-21 09:36:29 GMT 51.17218 -0.01640 2,125 256 134 -576
2017-09-21 09:36:27 GMT 51.17227 -0.01587 2,125 256 134 -576
2017-09-21 09:36:23 GMT 51.17297 -0.01167 2,175 259 135 -512
2017-09-21 09:36:20 GMT 51.17331 -0.00883 2,225 260 135 -960
2017-09-21 09:36:18 GMT 51.17362 -0.00641 2,250 262 136 -704
2017-09-21 09:36:14 GMT 51.17390 -0.00343 2,300 261 136 -1024
2017-09-21 09:36:12 GMT 51.17413 -0.00107 2,325 260 135 -768
2017-09-21 09:36:10 GMT 51.17441 0.00122 2,350 258 131 -576
2017-09-21 09:36:08 GMT 51.17464 0.00282 2,375 259 127 -704
2017-09-21 09:36:06 GMT 51.17492 0.00481 2,400 258 127 -768
2017-09-21 09:36:04 GMT 51.17509 0.00638 2,425 257 128 -704
2017-09-21 09:36:02 GMT 51.17539 0.00832 2,450 257 128 -704
2017-09-21 09:35:59 GMT 51.17578 0.01076 2,475 256 130 -576
2017-09-21 09:35:57 GMT 51.17604 0.01259 2,500 256 130 -832
2017-09-21 09:35:55 GMT 51.17656 0.01589 2,525 259 134 -704
2017-09-21 09:35:52 GMT 51.17674 0.01732 2,550 260 136 -768
2017-09-21 09:35:50 GMT 51.17720 0.02093 2,600 260 137 -640
2017-09-21 09:35:47 GMT 51.17739 0.02243 2,625 259 137 -640
2017-09-21 09:35:44 GMT 51.17785 0.02602 2,650 258 139 -768
2017-09-21 09:35:41 GMT 51.17839 0.02992 2,700 258 142 -704
2017-09-21 09:35:39 GMT 51.17853 0.03096 2,725 258 143 -640
2017-09-21 09:35:37 GMT 51.17878 0.03311 2,750 258 144 -768
2017-09-21 09:35:35 GMT 51.17920 0.03601 2,775 258 146 -704
2017-09-21 09:35:33 GMT 51.17940 0.03741 2,800 258 146 -768
2017-09-21 09:35:30 GMT 51.17981 0.04060 2,825 258 149 -704
2017-09-21 09:35:28 GMT 51.18004 0.04231 2,850 258 150 -768
2017-09-21 09:35:25 GMT 51.18065 0.04677 2,900 258 153 -512
2017-09-21 09:35:22 GMT 51.18091 0.04862 2,925 258 154 -512
2017-09-21 09:35:20 GMT 51.18135 0.05142 2,925 257 163 128
2017-09-21 09:35:17 GMT 51.18173 0.05426 2,950 258 161 0
2017-09-21 09:35:14 GMT 51.18228 0.05791 2,950 257 165 0
2017-09-21 09:35:13 GMT 51.18265 0.06042 2,950 257 169 0
2017-09-21 09:35:11 GMT 51.18274 0.06117 2,950 257 169 0
2017-09-21 09:35:07 GMT 51.18356 0.06651 2,950 257 175 0
2017-09-21 09:35:05 GMT 51.18400 0.06920 2,950 257 178 256
2017-09-21 09:35:01 GMT 51.18466 0.07364 2,950 258 181 -64
2017-09-21 09:35:01 GMT 51.18466 0.07364 2,950 258 181 -64
2017-09-21 09:34:57 GMT 51.18568 0.08095 2,950 258 186 -192
2017-09-21 09:34:55 GMT 51.18590 0.08240 2,950 258 187 320
2017-09-21 09:34:52 GMT 51.18665 0.08766 2,950 258 189 -64
2017-09-21 09:34:47 GMT 51.18744 0.09308 2,950 256 192 0
2017-09-21 09:34:43 GMT 51.18855 0.09984 2,950 254 197 64
2017-09-21 09:34:41 GMT 51.18919 0.10318 2,950 253 197 64
2017-09-21 09:34:37 GMT 51.19002 0.10741 2,950 252 201 64
2017-09-21 09:34:34 GMT 51.19103 0.11254 2,950 252 203 -128
2017-09-21 09:34:32 GMT 51.19139 0.11454 2,950 256 205 -704
2017-09-21 09:34:30 GMT 51.19187 0.11826 2,975 260 207 -512
2017-09-21 09:34:26 GMT 51.19219 0.12283 3,000 272 213 -384
2017-09-21 09:34:23 GMT 51.19205 0.12810 3,050 279 217 -640
2017-09-21 09:34:21 GMT 51.19153 0.13243 3,075 287 221 -384
2017-09-21 09:34:18 GMT 51.19107 0.13488 3,075 291 226 -192
2017-09-21 09:34:16 GMT 51.19002 0.13918 3,075 297 228 -192
2017-09-21 09:34:12 GMT 51.18819 0.14453 3,100 308 236 128
2017-09-21 09:34:10 GMT 51.18700 0.14728 3,100 322 243 192
2017-09-21 09:34:08 GMT 51.18595 0.14954 3,100 311 237 0
2017-09-21 09:34:05 GMT 51.18306 0.15440 3,100 319 242 -256
2017-09-21 09:34:02 GMT 51.18013 0.15826 3,100 322 243 192
2017-09-21 09:34:00 GMT 51.17911 0.15945 3,100 328 248 0
2017-09-21 09:33:58 GMT 51.17587 0.16249 3,100 338 253 -64
2017-09-21 09:33:55 GMT 51.17354 0.16428 3,100 338 253 -64
2017-09-21 09:33:55 GMT 51.17354 0.16428 3,100 340 254 -192
2017-09-21 09:33:51 GMT 51.16914 0.16680 3,125 346 255 -192
2017-09-21 09:33:49 GMT 51.16580 0.16808 3,125 350 256 -320
2017-09-21 09:33:46 GMT 51.16333 0.16873 3,150 353 258 -320
2017-09-21 09:33:44 GMT 51.16168 0.16910 3,150 354 258 -256
2017-09-21 09:33:44 GMT 51.16168 0.16910 3,150 356 258 -192
2017-09-21 09:33:41 GMT 51.15774 0.16977 3,175 355 259 -576
2017-09-21 09:33:38 GMT 51.15299 0.17044 3,225 355 258 -640
2017-09-21 09:33:36 GMT 51.15132 0.17067 3,225 355 259 -384
2017-09-21 09:33:34 GMT 51.14955 0.17096 3,250 355 258 -384
2017-09-21 09:33:34 GMT 51.14955 0.17096 3,250 355 258 -384
2017-09-21 09:33:30 GMT 51.14552 0.17155 3,275 355 258 -448
2017-09-21 09:33:26 GMT 51.13838 0.17259 3,325 356 257 -320
2017-09-21 09:33:22 GMT 51.13481 0.17304 3,325 357 258 -128
2017-09-21 09:33:19 GMT 51.13243 0.17318 3,325 357 258 -192
2017-09-21 09:33:17 GMT 51.12785 0.17333 3,350 1 260 -512
2017-09-21 09:33:15 GMT 51.12740 0.17333 3,375 1 260 -512
2017-09-21 09:33:13 GMT 51.12413 0.17304 3,375 6 261 -512
2017-09-21 09:33:10 GMT 51.12117 0.17237 3,400 10 263 -320
2017-09-21 09:33:08 GMT 51.11827 0.17136 3,425 23 267 -256
2017-09-21 09:33:06 GMT 51.11481 0.16955 3,450 23 267 -256
2017-09-21 09:33:04 GMT 51.11352 0.16876 3,450 23 267 -256
2017-09-21 09:33:02 GMT 51.11198 0.16762 3,450 25 268 -256
2017-09-21 09:33:00 GMT 51.10986 0.16591 3,450 25 268 -256
2017-09-21 09:32:58 GMT 51.10765 0.16380 3,475 33 269 -320
2017-09-21 09:32:54 GMT 51.10226 0.15708 3,500 44 268 -320
2017-09-21 09:32:52 GMT 51.10139 0.15574 3,525 45 267 -256
2017-09-21 09:32:49 GMT 51.09878 0.15151 3,525 47 268 -256
2017-09-21 09:32:47 GMT 51.09769 0.14961 3,550 47 267 -320
2017-09-21 09:32:44 GMT 51.09453 0.14412 3,575 48 267 -192
2017-09-21 09:32:42 GMT 51.09329 0.14186 3,575 48 267 -256
2017-09-21 09:32:40 GMT 51.09173 0.13916 3,575 48 266 -704
2017-09-21 09:32:38 GMT 51.08964 0.13550 3,600 48 266 -640
2017-09-21 09:32:35 GMT 51.08629 0.12947 3,650 48 266 -640
2017-09-21 09:32:33 GMT 51.08556 0.12820 3,650 48 266 -640
2017-09-21 09:32:31 GMT 51.08391 0.12530 3,675 48 266 -768
2017-09-21 09:32:29 GMT 51.08226 0.12233 3,700 48 266 -768
2017-09-21 09:32:27 GMT 51.08103 0.12016 3,725 48 265 -832
2017-09-21 09:32:24 GMT 51.07750 0.11395 3,775 48 264 -768
2017-09-21 09:32:22 GMT 51.07595 0.11116 3,800 48 264 -832
2017-09-21 09:32:19 GMT 51.07302 0.10597 3,875 48 264 -832
2017-09-21 09:32:17 GMT 51.07228 0.10467 3,875 48 264 -832
2017-09-21 09:32:12 GMT 51.06841 0.09788 3,925 48 264 -704
2017-09-21 09:32:10 GMT 51.06599 0.09346 3,975 47 264 -832
2017-09-21 09:32:08 GMT 51.06403 0.09010 4,000 47 264 -896
2017-09-21 09:32:06 GMT 51.06371 0.08949 4,025 47 264 -896
2017-09-21 09:32:02 GMT 51.06015 0.08336 4,075 47 264 -768
2017-09-21 09:32:00 GMT 51.05780 0.07919 4,100 47 263 -640
2017-09-21 09:31:58 GMT 51.05696 0.07774 4,125 46 263 -640
2017-09-21 09:31:55 GMT 51.05452 0.07364 4,150 46 263 -640
2017-09-21 09:31:51 GMT 51.05095 0.06760 4,200 46 263 -576
2017-09-21 09:31:49 GMT 51.04889 0.06406 4,225 46 263 -576
2017-09-21 09:31:47 GMT 51.04811 0.06279 4,225 46 263 -576
2017-09-21 09:31:44 GMT 51.04550 0.05842 4,275 46 263 -576
2017-09-21 09:31:40 GMT 51.04097 0.05078 4,325 46 264 -640
2017-09-21 09:31:38 GMT 51.03978 0.04877 4,325 46 264 -704
2017-09-21 09:31:33 GMT 51.03543 0.04157 4,400 46 263 -768
2017-09-21 09:31:30 GMT 51.03317 0.03777 4,450 46 263 -896
2017-09-21 09:31:28 GMT 51.03191 0.03563 4,475 46 263 -896
2017-09-21 09:31:26 GMT 51.03019 0.03265 4,500 46 263 -896
2017-09-21 09:31:22 GMT 51.02582 0.02541 4,575 46 263 -896
2017-09-21 09:31:20 GMT 51.02451 0.02312 4,600 46 263 -896
2017-09-21 09:31:18 GMT 51.02344 0.02130 4,625 46 263 -896
2017-09-21 09:31:16 GMT 51.02225 0.01930 4,650 46 263 -960
2017-09-21 09:31:14 GMT 51.02010 0.01566 4,675 46 262 -1152
2017-09-21 09:31:12 GMT 51.01762 0.01151 4,725 46 263 -960
2017-09-21 09:31:08 GMT 51.01552 0.00802 4,775 46 263 -1024
2017-09-21 09:31:06 GMT 51.01309 0.00386 4,825 46 262 -1088
2017-09-21 09:31:03 GMT 51.01144 0.00104 4,850 46 262 -1088
2017-09-21 09:31:00 GMT 51.00822 -0.00442 4,950 46 261 -1152
2017-09-21 09:30:58 GMT 51.00696 -0.00653 4,975 47 262 -1088
2017-09-21 09:30:58 GMT 51.00696 -0.00653 4,975 47 262 -1088
2017-09-21 09:30:56 GMT 51.00449 -0.01069 5,025 47 262 -1088
2017-09-21 09:30:52 GMT 51.00201 -0.01492 5,075 47 262 -960
2017-09-21 09:30:50 GMT 50.99979 -0.01877 5,125 47 263 -960
2017-09-21 09:30:48 GMT 50.99895 -0.02022 5,125 47 263 -896
2017-09-21 09:30:46 GMT 50.99681 -0.02388 5,175 47 264 -832
2017-09-21 09:30:44 GMT 50.99524 -0.02658 5,200 47 264 -704
2017-09-21 09:30:42 GMT 50.99300 -0.03044 5,225 47 265 -704
2017-09-21 09:30:40 GMT 50.99176 -0.03259 5,250 47 266 -768
2017-09-21 09:30:38 GMT 50.99048 -0.03487 5,275 47 266 -768
2017-09-21 09:30:36 GMT 50.98892 -0.03756 5,300 47 267 -768
2017-09-21 09:30:32 GMT 50.98517 -0.04410 5,350 47 273 -640
2017-09-21 09:30:29 GMT 50.98293 -0.04810 5,375 47 272 -576
2017-09-21 09:30:27 GMT 50.98036 -0.05248 5,425 47 273 -640
2017-09-21 09:30:27 GMT 50.98036 -0.05248 5,425 47 273 -640
2017-09-21 09:30:25 GMT 50.97959 -0.05386 5,425 47 273 -640
2017-09-21 09:30:22 GMT 50.97656 -0.05920 5,475 48 278 -960
2017-09-21 09:30:20 GMT 50.97433 -0.06317 5,500 48 279 -1152
2017-09-21 09:30:16 GMT 50.97088 -0.06920 5,575 48 279 -1216
2017-09-21 09:30:14 GMT 50.97047 -0.06993 5,600 48 279 -1344
2017-09-21 09:30:12 GMT 50.96762 -0.07500 5,650 48 279 -1344
2017-09-21 09:30:08 GMT 50.96503 -0.07958 5,725 48 280 -1408
2017-09-21 09:30:06 GMT 50.96246 -0.08423 5,800 48 281 -1408
2017-09-21 09:30:04 GMT 50.96081 -0.08715 5,850 48 281 -1344
2017-09-21 09:30:02 GMT 50.95883 -0.09071 5,900 48 281 -1344
2017-09-21 09:30:00 GMT 50.95789 -0.09242 5,925 48 282 -1344
2017-09-21 09:29:57 GMT 50.95578 -0.09613 5,975 48 282 -1344
2017-09-21 09:29:55 GMT 50.95310 -0.10094 6,050 48 282 -1280
2017-09-21 09:29:54 GMT 50.95235 -0.10237 6,075 48 283 -1280
2017-09-21 09:29:54 GMT 50.95235 -0.10237 6,075 48 284 -1216
2017-09-21 09:29:52 GMT 50.95049 -0.10559 6,100 48 283 -1216
2017-09-21 09:29:50 GMT 50.94965 -0.10719 6,125 48 283 -1216
2017-09-21 09:29:46 GMT 50.94575 -0.11417 6,225 48 284 -1152
2017-09-21 09:29:44 GMT 50.94388 -0.11742 6,250 48 284 -1216
2017-09-21 09:29:42 GMT 50.94127 -0.12219 6,325 48 284 -1216
2017-09-21 09:29:37 GMT 50.93820 -0.12760 6,400 48 284 -1152
2017-09-21 09:29:35 GMT 50.93643 -0.13084 6,425 48 284 -1152
2017-09-21 09:29:32 GMT 50.93390 -0.13540 6,475 48 286 -1088
2017-09-21 09:29:30 GMT 50.93117 -0.14023 6,550 48 286 -960
2017-09-21 09:29:28 GMT 50.92996 -0.14244 6,550 48 287 -896
2017-09-21 09:29:26 GMT 50.92831 -0.14542 6,600 48 287 -832
2017-09-21 09:29:23 GMT 50.92470 -0.15198 6,650 48 289 -768
2017-09-21 09:29:21 GMT 50.92382 -0.15350 6,650 48 290 -704
2017-09-21 09:29:18 GMT 50.92163 -0.15752 6,700 48 290 -704
2017-09-21 09:29:16 GMT 50.91977 -0.16083 6,725 48 290 -704
2017-09-21 09:29:14 GMT 50.91707 -0.16563 6,750 48 291 -768
2017-09-21 09:29:12 GMT 50.91527 -0.16888 6,775 48 292 -832
2017-09-21 09:29:10 GMT 50.91344 -0.17220 6,800 48 294 -832
2017-09-21 09:29:08 GMT 50.91128 -0.17608 6,850 48 296 -1088
2017-09-21 09:29:06 GMT 50.91027 -0.17792 6,875 48 294 -896
2017-09-21 09:29:02 GMT 50.90725 -0.18341 6,925 48 296 -1088
2017-09-21 09:29:00 GMT 50.90570 -0.18617 6,950 48 296 -1216
2017-09-21 09:28:57 GMT 50.90236 -0.19226 7,025 48 296 -1280
2017-09-21 09:28:55 GMT 50.90073 -0.19516 7,075 48 296 -1216
2017-09-21 09:28:53 GMT 50.89859 -0.19913 7,125 48 296 -1280
2017-09-21 09:28:51 GMT 50.89584 -0.20401 7,175 48 298 -1280
2017-09-21 09:28:51 GMT 50.89677 -0.20241 7,150 48 297 -1280
2017-09-21 09:28:46 GMT 50.89165 -0.21171 7,275 48 298 -1344
2017-09-21 09:28:43 GMT 50.88970 -0.21522 7,325 48 298 -1344
2017-09-21 09:28:40 GMT 50.88639 -0.22125 7,400 49 299 -1344
2017-09-21 09:28:38 GMT 50.88551 -0.22284 7,425 49 299 -1344
2017-09-21 09:28:36 GMT 50.88248 -0.22835 7,500 49 299 -1344
2017-09-21 09:28:34 GMT 50.88192 -0.22934 7,525 49 299 -1344
2017-09-21 09:28:32 GMT 50.87978 -0.23331 7,575 49 299 -1344
2017-09-21 09:28:29 GMT 50.87640 -0.23947 7,650 48 299 -1408
2017-09-21 09:28:27 GMT 50.87512 -0.24177 7,700 48 299 -1408
2017-09-21 09:28:25 GMT 50.87284 -0.24590 7,750 48 299 -1408
2017-09-21 09:28:24 GMT 50.87284 -0.24590 7,750 48 299 -1408
2017-09-21 09:28:22 GMT 50.87070 -0.24986 7,800 48 299 -1408
2017-09-21 09:28:19 GMT 50.86684 -0.25680 7,900 48 299 -1408
2017-09-21 09:28:17 GMT 50.86502 -0.26009 7,950 48 299 -1408
2017-09-21 09:28:15 GMT 50.86386 -0.26219 7,975 48 300 -1472
2017-09-21 09:28:12 GMT 50.86148 -0.26649 8,050 48 299 -1408
2017-09-21 09:28:10 GMT 50.85960 -0.26983 8,100 48 299 -1408
2017-09-21 09:28:08 GMT 50.85690 -0.27473 8,150 48 299 -1408
2017-09-21 09:28:04 GMT 50.85439 -0.27941 8,225 49 300 -1344
2017-09-21 09:28:02 GMT 50.85292 -0.28201 8,250 49 300 -1344
2017-09-21 09:28:00 GMT 50.85077 -0.28609 8,325 51 300 -1280
2017-09-21 09:27:58 GMT 50.84903 -0.28943 8,350 51 300 -1280
2017-09-21 09:27:56 GMT 50.84719 -0.29304 8,400 51 300 -1280
2017-09-21 09:27:54 GMT 50.84519 -0.29724 8,450 54 300 -1408
2017-09-21 09:27:52 GMT 50.84356 -0.30075 8,500 55 300 -1408
2017-09-21 09:27:50 GMT 50.84277 -0.30258 8,525 55 300 -1408
2017-09-21 09:27:48 GMT 50.84105 -0.30655 8,575 56 299 -1344
2017-09-21 09:27:46 GMT 50.83937 -0.31059 8,625 56 300 -1344
2017-09-21 09:27:43 GMT 50.83709 -0.31609 8,700 56 300 -1344
2017-09-21 09:27:41 GMT 50.83518 -0.32082 8,750 56 300 -1344
2017-09-21 09:27:37 GMT 50.83299 -0.32608 8,825 56 300 -1344
2017-09-21 09:27:37 GMT 50.83264 -0.32692 8,825 56 300 -1344
2017-09-21 09:27:35 GMT 50.83081 -0.33137 8,875 56 300 -1408
2017-09-21 09:27:32 GMT 50.82881 -0.33630 8,950 57 301 -1344
2017-09-21 09:27:30 GMT 50.82751 -0.33946 8,975 57 301 -1408
2017-09-21 09:27:28 GMT 50.82531 -0.34477 9,050 57 301 -1344
2017-09-21 09:27:27 GMT 50.82531 -0.34477 9,050 57 301 -1344
2017-09-21 09:27:25 GMT 50.82350 -0.34920 9,100 57 301 -1408
2017-09-21 09:27:23 GMT 50.82182 -0.35324 9,150 56 302 -1408
2017-09-21 09:27:21 GMT 50.81959 -0.35862 9,225 56 302 -1408
2017-09-21 09:27:19 GMT 50.81861 -0.36102 9,250 56 303 -1216
2017-09-21 09:27:17 GMT 50.81679 -0.36545 9,300 56 302 -1280
2017-09-21 09:27:14 GMT 50.81488 -0.37012 9,350 56 303 -1280
2017-09-21 09:27:12 GMT 50.81344 -0.37361 9,400 56 306 -1216
2017-09-21 09:27:10 GMT 50.81122 -0.37888 9,450 56 304 -1152
2017-09-21 09:27:06 GMT 50.80897 -0.38437 9,500 56 304 -1152
2017-09-21 09:27:03 GMT 50.80683 -0.38963 9,575 56 305 -1216
2017-09-21 09:27:01 GMT 50.80558 -0.39261 9,600 56 305 -1216
2017-09-21 09:26:59 GMT 50.80404 -0.39635 9,650 56 306 -1216
2017-09-21 09:26:57 GMT 50.80211 -0.40100 9,700 56 306 -1280
2017-09-21 09:26:54 GMT 50.79892 -0.40863 9,775 56 306 -1408
2017-09-21 09:26:52 GMT 50.79776 -0.41147 9,825 56 306 -1408
2017-09-21 09:26:52 GMT 50.79776 -0.41147 9,825 56 306 -1408
2017-09-21 09:26:52 GMT 50.79854 -0.40961 9,800 56 306 -1408
2017-09-21 09:26:49 GMT 50.79608 -0.41534 9,875 56 306 -1472
2017-09-21 09:26:47 GMT 50.79446 -0.41934 9,925 56 307 -1408
2017-09-21 09:26:45 GMT 50.79163 -0.42602 10,000 56 307 -1408
2017-09-21 09:26:43 GMT 50.79085 -0.42795 10,025 56 307 -1408
2017-09-21 09:26:41 GMT 50.78942 -0.43137 10,075 56 307 -1408
2017-09-21 09:26:37 GMT 50.78663 -0.43793 10,150 56 308 -1344
2017-09-21 09:26:35 GMT 50.78407 -0.44398 10,225 56 308 -1344
2017-09-21 09:26:33 GMT 50.78297 -0.44658 10,250 56 308 -1280
2017-09-21 09:26:30 GMT 50.78100 -0.45128 10,300 56 308 -1280
2017-09-21 09:26:28 GMT 50.77936 -0.45519 10,350 56 308 -1280
2017-09-21 09:26:26 GMT 50.77698 -0.46083 10,425 56 309 -1216
2017-09-21 09:26:24 GMT 50.77592 -0.46326 10,450 56 310 -1216
2017-09-21 09:26:21 GMT 50.77257 -0.47119 10,525 56 311 -1088
2017-09-21 09:26:19 GMT 50.77185 -0.47286 10,550 56 311 -1088
2017-09-21 09:26:16 GMT 50.76987 -0.47760 10,575 56 313 -896
2017-09-21 09:26:14 GMT 50.76726 -0.48370 10,650 56 313 -896
2017-09-21 09:26:14 GMT 50.76726 -0.48370 10,650 56 313 -896
2017-09-21 09:26:11 GMT 50.76559 -0.48775 10,675 56 314 -832
2017-09-21 09:26:07 GMT 50.76214 -0.49583 10,725 56 315 -704
2017-09-21 09:26:05 GMT 50.76023 -0.50049 10,750 56 315 -704
2017-09-21 09:26:03 GMT 50.75899 -0.50337 10,775 56 318 -640
2017-09-21 09:26:03 GMT 50.75899 -0.50337 10,775 56 318 -640
2017-09-21 09:26:00 GMT 50.75730 -0.50743 10,800 56 319 -576
2017-09-21 09:25:58 GMT 50.75473 -0.51346 10,825 56 320 -640
2017-09-21 09:25:55 GMT 50.75180 -0.52044 10,875 56 323 -640
2017-09-21 09:25:52 GMT 50.75023 -0.52422 10,900 56 326 -704
2017-09-21 09:25:49 GMT 50.74753 -0.53055 10,925 56 326 -704
2017-09-21 09:25:47 GMT 50.74580 -0.53469 10,950 56 328 -768
2017-09-21 09:25:45 GMT 50.74411 -0.53863 10,975 56 328 -768
2017-09-21 09:25:43 GMT 50.74250 -0.54253 11,000 56 330 -704
2017-09-21 09:25:41 GMT 50.74077 -0.54657 11,025 56 331 -704
2017-09-21 09:25:39 GMT 50.73808 -0.55305 11,075 56 335 -768
2017-09-21 09:25:37 GMT 50.73728 -0.55496 11,075 56 333 -704
2017-09-21 09:25:35 GMT 50.73582 -0.55837 11,100 56 334 -768
2017-09-21 09:25:32 GMT 50.73326 -0.56453 11,125 56 335 -768
2017-09-21 09:25:30 GMT 50.73161 -0.56839 11,150 56 337 -704
2017-09-21 09:25:28 GMT 50.72886 -0.57495 11,200 56 343 -896
2017-09-21 09:25:25 GMT 50.72695 -0.57953 11,225 56 341 -768
2017-09-21 09:25:22 GMT 50.72424 -0.58591 11,275 56 342 -896
2017-09-21 09:25:20 GMT 50.72282 -0.58925 11,300 56 343 -896
2017-09-21 09:25:18 GMT 50.71999 -0.59593 11,350 56 345 -1024
2017-09-21 09:25:16 GMT 50.71866 -0.59906 11,375 56 346 -1024
2017-09-21 09:25:16 GMT 50.71820 -0.60009 11,375 56 346 -1088
2017-09-21 09:25:13 GMT 50.71564 -0.60616 11,425 56 347 -1152
2017-09-21 09:25:11 GMT 50.71498 -0.60768 11,450 56 347 -1216
2017-09-21 09:25:09 GMT 50.71335 -0.61160 11,475 56 348 -1280
2017-09-21 09:25:07 GMT 50.71154 -0.61584 11,525 56 348 -1408
2017-09-21 09:25:05 GMT 50.70927 -0.62117 11,600 56 349 -1536
2017-09-21 09:25:03 GMT 50.70767 -0.62496 11,650 56 349 -1664
2017-09-21 09:25:01 GMT 50.70507 -0.63110 11,725 56 349 -1728
2017-09-21 09:24:58 GMT 50.70325 -0.63538 11,775 56 349 -1728
2017-09-21 09:24:56 GMT 50.70200 -0.63828 11,825 56 349 -1728
2017-09-21 09:24:55 GMT 50.70030 -0.64233 11,875 56 349 -1728
2017-09-21 09:24:54 GMT 50.69994 -0.64315 11,875 56 350 -1792
2017-09-21 09:24:52 GMT 50.69790 -0.64804 11,950 56 349 -1792
2017-09-21 09:24:50 GMT 50.69582 -0.65294 12,025 56 350 -1792
2017-09-21 09:24:48 GMT 50.69394 -0.65735 12,075 56 351 -1728
2017-09-21 09:24:48 GMT 50.69357 -0.65829 12,100 56 351 -1728
2017-09-21 09:24:45 GMT 50.69083 -0.66467 12,175 56 350 -1728
2017-09-21 09:24:43 GMT 50.68918 -0.66861 12,225 56 351 -1664
2017-09-21 09:24:41 GMT 50.68682 -0.67413 12,300 56 351 -1664
2017-09-21 09:24:38 GMT 50.68501 -0.67848 12,350 56 351 -1664
2017-09-21 09:24:36 GMT 50.68323 -0.68264 12,425 56 351 -1600
2017-09-21 09:24:34 GMT 50.68176 -0.68605 12,475 56 351 -1600
2017-09-21 09:24:33 GMT 50.68053 -0.68902 12,500 56 351 -1600
2017-09-21 09:24:31 GMT 50.67881 -0.69305 12,550 56 351 -1536
2017-09-21 09:24:30 GMT 50.67796 -0.69496 12,575 56 351 -1536
2017-09-21 09:24:28 GMT 50.67537 -0.70114 12,650 56 352 -1472
2017-09-21 09:24:26 GMT 50.67325 -0.70602 12,700 56 353 -1472
2017-09-21 09:24:26 GMT 50.67500 -0.70198 12,650 56 352 -1472
2017-09-21 09:24:24 GMT 50.67238 -0.70817 12,725 56 353 -1472
2017-09-21 09:24:24 GMT 50.67238 -0.70817 12,725 56 353 -1472
2017-09-21 09:24:21 GMT 50.66945 -0.71498 12,800 56 353 -1472
2017-09-21 09:24:19 GMT 50.66689 -0.72098 12,875 56 355 -1408
2017-09-21 09:24:17 GMT 50.66597 -0.72315 12,900 56 355 -1408
2017-09-21 09:24:15 GMT 50.66432 -0.72698 12,950 56 356 -1408
2017-09-21 09:24:13 GMT 50.66213 -0.73218 13,000 56 356 -1344
2017-09-21 09:24:10 GMT 50.65883 -0.73992 13,075 56 356 -1344
2017-09-21 09:24:08 GMT 50.65842 -0.74085 13,075 56 356 -1344
2017-09-21 09:24:06 GMT 50.65638 -0.74566 13,125 56 357 -1408
2017-09-21 09:24:06 GMT 50.65498 -0.74895 13,175 56 358 -1408
2017-09-21 09:24:06 GMT 50.65545 -0.74781 13,150 56 357 -1408
2017-09-21 09:24:04 GMT 50.65358 -0.75219 13,200 56 357 -1408
2017-09-21 09:24:02 GMT 50.65228 -0.75516 13,250 56 359 -1536
2017-09-21 09:24:00 GMT 50.65102 -0.75820 13,275 56 359 -1472
2017-09-21 09:23:58 GMT 50.64890 -0.76319 13,325 56 359 -1536
2017-09-21 09:23:55 GMT 50.64599 -0.76993 13,400 56 360 -1600
2017-09-21 09:23:53 GMT 50.64413 -0.77424 13,475 56 360 -1664
2017-09-21 09:23:52 GMT 50.64283 -0.77728 13,500 56 360 -1600
2017-09-21 09:23:50 GMT 50.64059 -0.78255 13,575 56 361 -1600
2017-09-21 09:23:47 GMT 50.63828 -0.78798 13,625 56 361 -1600
2017-09-21 09:23:45 GMT 50.63585 -0.79362 13,700 56 361 -1600
2017-09-21 09:23:43 GMT 50.63452 -0.79673 13,750 56 361 -1600
2017-09-21 09:23:40 GMT 50.63184 -0.80304 13,825 56 361 -1664
2017-09-21 09:23:37 GMT 50.62868 -0.81039 13,925 56 362 -1664
2017-09-21 09:23:35 GMT 50.62729 -0.81371 13,950 56 362 -1664
2017-09-21 09:23:33 GMT 50.62477 -0.81959 14,025 56 362 -1664
2017-09-21 09:23:30 GMT 50.62291 -0.82398 14,100 56 362 -1664
2017-09-21 09:23:28 GMT 50.62048 -0.82962 14,150 56 363 -1536
2017-09-21 09:23:26 GMT 50.61899 -0.83318 14,200 56 363 -1600
2017-09-21 09:23:24 GMT 50.61615 -0.83971 14,275 56 363 -1536
2017-09-21 09:23:22 GMT 50.61493 -0.84255 14,325 56 363 -1536
2017-09-21 09:23:20 GMT 50.61201 -0.84936 14,400 56 364 -1472
2017-09-21 09:23:16 GMT 50.60978 -0.85463 14,450 56 365 -1472
2017-09-21 09:23:14 GMT 50.60683 -0.86149 14,525 56 366 -1408
2017-09-21 09:23:12 GMT 50.60536 -0.86503 14,575 56 366 -1344
2017-09-21 09:23:10 GMT 50.60335 -0.86963 14,600 56 367 -1344
2017-09-21 09:23:10 GMT 50.60284 -0.87081 14,625 56 368 -1344
2017-09-21 09:23:07 GMT 50.60107 -0.87497 14,675 56 367 -1344
2017-09-21 09:23:05 GMT 50.59891 -0.88006 14,725 56 367 -1344
2017-09-21 09:23:03 GMT 50.59614 -0.88648 14,775 56 368 -1344
2017-09-21 09:23:01 GMT 50.59558 -0.88781 14,800 56 368 -1344
2017-09-21 09:22:58 GMT 50.59245 -0.89517 14,875 56 371 -1408
2017-09-21 09:22:55 GMT 50.58948 -0.90207 14,950 56 371 -1344
2017-09-21 09:22:53 GMT 50.58687 -0.90811 15,000 56 372 -1344
2017-09-21 09:22:51 GMT 50.58413 -0.91461 15,075 56 373 -1408
2017-09-21 09:22:48 GMT 50.58315 -0.91684 15,100 56 373 -1408
2017-09-21 09:22:46 GMT 50.57996 -0.92430 15,175 56 374 -1472
2017-09-21 09:22:44 GMT 50.57952 -0.92545 15,175 56 374 -1472
2017-09-21 09:22:42 GMT 50.57707 -0.93109 15,250 56 374 -1600
2017-09-21 09:22:40 GMT 50.57574 -0.93413 15,275 56 374 -1664
2017-09-21 09:22:38 GMT 50.57347 -0.93963 15,350 56 374 -1728
2017-09-21 09:22:34 GMT 50.56920 -0.94959 15,475 56 374 -1856
2017-09-21 09:22:30 GMT 50.56549 -0.95820 15,600 56 374 -1856
2017-09-21 09:22:28 GMT 50.56369 -0.96249 15,650 56 375 -1792
2017-09-21 09:22:26 GMT 50.56076 -0.96925 15,750 56 375 -1792
2017-09-21 09:22:23 GMT 50.55866 -0.97422 15,800 56 375 -1792
2017-09-21 09:22:21 GMT 50.55684 -0.97851 15,875 56 375 -1792
2017-09-21 09:22:19 GMT 50.55536 -0.98194 15,900 56 375 -1792
2017-09-21 09:22:16 GMT 50.55121 -0.99166 16,025 56 375 -1792
2017-09-21 09:22:14 GMT 50.55025 -0.99390 16,075 56 376 -1792
2017-09-21 09:22:12 GMT 50.54879 -0.99731 16,100 56 376 -1792
2017-09-21 09:22:09 GMT 50.54530 -1.00555 16,225 56 376 -1792
2017-09-21 09:22:07 GMT 50.54372 -1.00918 16,250 56 376 -1728
2017-09-21 09:22:04 GMT 50.54028 -1.01728 16,375 56 377 -1728
2017-09-21 09:22:02 GMT 50.53832 -1.02180 16,425 56 377 -1728
2017-09-21 09:22:00 GMT 50.53660 -1.02589 16,475 56 377 -1792
2017-09-21 09:21:58 GMT 50.53473 -1.03026 16,525 56 377 -1792
2017-09-21 09:21:56 GMT 50.53250 -1.03546 16,600 56 378 -1792
2017-09-21 09:21:54 GMT 50.53017 -1.04096 16,675 56 378 -1792
2017-09-21 09:21:52 GMT 50.52920 -1.04326 16,700 56 378 -1792
2017-09-21 09:21:49 GMT 50.52599 -1.05078 16,800 56 378 -1792
2017-09-21 09:21:47 GMT 50.52310 -1.05758 16,875 56 379 -1728
2017-09-21 09:21:46 GMT 50.52356 -1.05647 16,875 56 379 -1728
2017-09-21 09:21:45 GMT 50.52258 -1.05877 16,900 56 379 -1728
2017-09-21 09:21:43 GMT 50.52017 -1.06445 16,975 56 379 -1728
2017-09-21 09:21:41 GMT 50.51784 -1.06987 17,050 56 379 -1728
2017-09-21 09:21:39 GMT 50.51578 -1.07464 17,100 56 379 -1728
2017-09-21 09:21:37 GMT 50.51331 -1.08042 17,175 56 379 -1728
2017-09-21 09:21:36 GMT 50.51331 -1.08042 17,175 56 379 -1728
2017-09-21 09:21:34 GMT 50.51038 -1.08728 17,250 56 381 -1728
2017-09-21 09:21:32 GMT 50.50950 -1.08935 17,275 56 380 -1728
2017-09-21 09:21:30 GMT 50.50667 -1.09596 17,350 56 380 -1728
2017-09-21 09:21:28 GMT 50.50529 -1.09921 17,400 56 380 -1728
2017-09-21 09:21:28 GMT 50.50480 -1.10034 17,425 56 380 -1728
2017-09-21 09:21:28 GMT 50.50584 -1.09784 17,375 56 380 -1728
2017-09-21 09:21:26 GMT 50.50314 -1.10427 17,475 56 381 -1728
2017-09-21 09:21:23 GMT 50.50081 -1.10976 17,525 56 382 -1728
2017-09-21 09:21:21 GMT 50.49852 -1.11511 17,600 56 383 -1728
2017-09-21 09:21:18 GMT 50.49442 -1.12476 17,725 56 383 -1728
2017-09-21 09:21:15 GMT 50.49239 -1.12964 17,775 56 383 -1728
2017-09-21 09:21:13 GMT 50.49000 -1.13521 17,850 56 383 -1728
2017-09-21 09:21:11 GMT 50.48916 -1.13716 17,875 56 383 -1728
2017-09-21 09:21:08 GMT 50.48470 -1.14764 18,000 56 385 -1664
2017-09-21 09:21:06 GMT 50.48418 -1.14881 18,000 55 386 -1536
2017-09-21 09:21:04 GMT 50.48120 -1.15579 18,100 56 384 -1664
2017-09-21 09:21:02 GMT 50.47920 -1.16039 18,150 55 386 -1536
2017-09-21 09:21:00 GMT 50.47774 -1.16383 18,175 55 386 -1472
2017-09-21 09:20:58 GMT 50.47561 -1.16871 18,225 55 386 -1472
2017-09-21 09:20:55 GMT 50.47296 -1.17472 18,300 55 388 -1408
2017-09-21 09:20:53 GMT 50.47096 -1.17932 18,350 55 419 -1600
2017-09-21 09:20:51 GMT 50.46780 -1.18652 18,425 55 391 -1088
2017-09-21 09:20:49 GMT 50.46634 -1.18978 18,450 55 393 -960
2017-09-21 09:20:47 GMT 50.46368 -1.19585 18,500 55 391 -1024
2017-09-21 09:20:45 GMT 50.46235 -1.19885 18,525 55 391 -1024
2017-09-21 09:20:43 GMT 50.46021 -1.20380 18,550 55 393 -896
2017-09-21 09:20:40 GMT 50.45788 -1.20909 18,575 55 394 -832
2017-09-21 09:20:38 GMT 50.45480 -1.21616 18,625 55 399 -704
2017-09-21 09:20:36 GMT 50.45224 -1.22201 18,650 55 398 -704
2017-09-21 09:20:34 GMT 50.45122 -1.22438 18,650 55 399 -704
2017-09-21 09:20:32 GMT 50.44955 -1.22817 18,675 55 402 -768
2017-09-21 09:20:30 GMT 50.44693 -1.23415 18,700 55 405 -1088
2017-09-21 09:20:28 GMT 50.44452 -1.23967 18,750 55 404 -1024
2017-09-21 09:20:26 GMT 50.44171 -1.24622 18,800 55 406 -1280
2017-09-21 09:20:24 GMT 50.44066 -1.24861 18,800 55 405 -1152
2017-09-21 09:20:22 GMT 50.43750 -1.25591 18,875 55 406 -1280
2017-09-21 09:20:20 GMT 50.43525 -1.26098 18,900 55 407 -1344
2017-09-21 09:20:16 GMT 50.43219 -1.26805 18,975 55 408 -1344
2017-09-21 09:20:14 GMT 50.42953 -1.27419 19,025 55 409 -1344
2017-09-21 09:20:11 GMT 50.42711 -1.27976 19,075 55 409 -1344
2017-09-21 09:20:09 GMT 50.42482 -1.28503 19,125 55 410 -1280
2017-09-21 09:20:06 GMT 50.42147 -1.29282 19,200 55 411 -1344
2017-09-21 09:20:03 GMT 50.41826 -1.30017 19,275 55 413 -1344
2017-09-21 09:20:00 GMT 50.41416 -1.30953 19,350 55 413 -1344
2017-09-21 09:19:58 GMT 50.41319 -1.31178 19,375 55 413 -1344
2017-09-21 09:19:56 GMT 50.41040 -1.31821 19,425 55 413 -1344
2017-09-21 09:19:54 GMT 50.40746 -1.32489 19,475 55 415 -1344
2017-09-21 09:19:50 GMT 50.40378 -1.33335 19,575 55 417 -1536
2017-09-21 09:19:47 GMT 50.40070 -1.34040 19,625 55 416 -1472
2017-09-21 09:19:45 GMT 50.39899 -1.34427 19,675 55 416 -1472
2017-09-21 09:19:43 GMT 50.39653 -1.35002 19,725 55 417 -1600
2017-09-21 09:19:40 GMT 50.39328 -1.35739 19,800 55 417 -1536
2017-09-21 09:19:38 GMT 50.39099 -1.36259 19,850 55 417 -1536
2017-09-21 09:19:35 GMT 50.38791 -1.36965 19,925 55 419 -1536
2017-09-21 09:19:33 GMT 50.38465 -1.37715 20,000 55 419 -1600
2017-09-21 09:19:31 GMT 50.38353 -1.37968 20,025 55 419 -1536
2017-09-21 09:19:29 GMT 50.38078 -1.38587 20,100 55 419 -1600
2017-09-21 09:19:29 GMT 50.38078 -1.38587 20,100 55 419 -1600
2017-09-21 09:19:27 GMT 50.37958 -1.38866 20,125 55 419 -1600
2017-09-21 09:19:25 GMT 50.37739 -1.39363 20,175 55 419 -1600
2017-09-21 09:19:23 GMT 50.37465 -1.39989 20,250 55 420 -1600
2017-09-21 09:19:20 GMT 50.37078 -1.40862 20,350 55 422 -1536
2017-09-21 09:19:17 GMT 50.36812 -1.41464 20,400 55 421 -1600
2017-09-21 09:19:15 GMT 50.36636 -1.41865 20,450 55 422 -1536
2017-09-21 09:19:13 GMT 50.36454 -1.42266 20,500 55 422 -1600
2017-09-21 09:19:10 GMT 50.36063 -1.43156 20,575 56 422 -1536
2017-09-21 09:19:08 GMT 50.35886 -1.43567 20,625 60 423 -1024
2017-09-21 09:19:06 GMT 50.35574 -1.44318 20,700 58 422 -1344
2017-09-21 09:19:04 GMT 50.35379 -1.44812 20,750 58 422 -1216
2017-09-21 09:19:01 GMT 50.35112 -1.45518 20,800 61 423 -896
2017-09-21 09:18:59 GMT 50.34915 -1.46053 20,825 60 423 -960
2017-09-21 09:18:57 GMT 50.34728 -1.46588 20,875 61 422 -896
2017-09-21 09:18:55 GMT 50.34563 -1.47072 20,900 62 423 -896
2017-09-21 09:18:53 GMT 50.34373 -1.47640 20,925 63 423 -960
2017-09-21 09:18:50 GMT 50.34112 -1.48456 20,975 64 422 -960
2017-09-21 09:18:48 GMT 50.33945 -1.49013 21,000 66 422 -1024
2017-09-21 09:18:46 GMT 50.33798 -1.49544 21,050 67 421 -1024
2017-09-21 09:18:44 GMT 50.33652 -1.50101 21,075 69 420 -1024
2017-09-21 09:18:42 GMT 50.33549 -1.50535 21,100 69 420 -1024
2017-09-21 09:18:40 GMT 50.33316 -1.51567 21,150 73 418 -896
2017-09-21 09:18:38 GMT 50.33258 -1.51857 21,175 73 418 -896
2017-09-21 09:18:35 GMT 50.33052 -1.52985 21,225 75 417 -896
2017-09-21 09:18:32 GMT 50.32951 -1.53621 21,275 76 417 -832
2017-09-21 09:18:30 GMT 50.32832 -1.54477 21,300 78 416 -768
2017-09-21 09:18:28 GMT 50.32791 -1.54799 21,325 79 415 -704
2017-09-21 09:18:26 GMT 50.32722 -1.55449 21,350 81 414 -640
2017-09-21 09:18:24 GMT 50.32663 -1.56042 21,375 84 412 -576
2017-09-21 09:18:22 GMT 50.32623 -1.56540 21,375 83 413 -576
2017-09-21 09:18:19 GMT 50.32562 -1.57490 21,425 85 412 -512
2017-09-21 09:18:17 GMT 50.32539 -1.58084 21,425 87 411 -512
2017-09-21 09:18:15 GMT 50.32521 -1.58586 21,450 90 410 -512
2017-09-21 09:18:13 GMT 50.32511 -1.59213 21,475 91 409 -512
2017-09-21 09:18:11 GMT 50.32511 -1.59799 21,475 99 402 -640
2017-09-21 09:18:09 GMT 50.32525 -1.60653 21,500 93 406 -640
2017-09-21 09:18:07 GMT 50.32539 -1.61130 21,525 93 406 -640
2017-09-21 09:18:05 GMT 50.32562 -1.61566 21,550 95 406 -640
2017-09-21 09:18:05 GMT 50.32562 -1.61566 21,550 95 406 -640
2017-09-21 09:18:03 GMT 50.32599 -1.62178 21,575 96 405 -640
2017-09-21 09:18:00 GMT 50.32669 -1.63080 21,600 98 403 -640
2017-09-21 09:17:57 GMT 50.32741 -1.63797 21,625 99 402 -640
2017-09-21 09:17:55 GMT 50.32846 -1.64684 21,675 103 400 -640
2017-09-21 09:17:53 GMT 50.32911 -1.65136 21,675 103 400 -640
2017-09-21 09:17:51 GMT 50.32977 -1.65582 21,700 104 398 -640
2017-09-21 09:17:49 GMT 50.33047 -1.66002 21,725 105 398 -704
2017-09-21 09:17:47 GMT 50.33205 -1.66859 21,750 107 396 -640
2017-09-21 09:17:44 GMT 50.33336 -1.67477 21,775 109 394 -576
2017-09-21 09:17:44 GMT 50.33336 -1.67477 21,775 114 392 -512
2017-09-21 09:17:41 GMT 50.33605 -1.68625 21,825 114 392 -512
2017-09-21 09:17:39 GMT 50.33638 -1.68763 21,825 113 392 -512
2017-09-21 09:17:36 GMT 50.33847 -1.69516 21,850 113 392 -512
2017-09-21 09:17:34 GMT 50.34154 -1.70541 21,900 116 390 -448
2017-09-21 09:17:34 GMT 50.34036 -1.70158 21,875 116 391 -448
2017-09-21 09:17:32 GMT 50.34289 -1.70941 21,900 119 389 -512
2017-09-21 09:17:30 GMT 50.34341 -1.71090 21,900 118 390 -512
2017-09-21 09:17:28 GMT 50.34625 -1.71869 21,950 122 387 -576
2017-09-21 09:17:26 GMT 50.34801 -1.72326 21,950 122 386 -640
2017-09-21 09:17:24 GMT 50.34890 -1.72537 21,975 122 386 -640
2017-09-21 09:17:22 GMT 50.35194 -1.73252 22,000 125 384 -640
2017-09-21 09:17:20 GMT 50.35300 -1.73476 22,025 126 384 -640
2017-09-21 09:17:18 GMT 50.35565 -1.74037 22,050 127 383 -640
2017-09-21 09:17:15 GMT 50.35914 -1.74727 22,075 129 382 -640
2017-09-21 09:17:13 GMT 50.36030 -1.74935 22,100 131 380 -704
2017-09-21 09:17:11 GMT 50.36252 -1.75333 22,125 132 380 -704
2017-09-21 09:17:09 GMT 50.36591 -1.75904 22,150 134 378 -768
2017-09-21 09:17:06 GMT 50.37041 -1.76605 22,200 136 377 -832
2017-09-21 09:17:03 GMT 50.37309 -1.76988 22,225 138 374 -832
2017-09-21 09:17:01 GMT 50.37492 -1.77241 22,250 139 373 -832
2017-09-21 09:16:59 GMT 50.37823 -1.77674 22,275 143 371 -832
2017-09-21 09:16:57 GMT 50.38093 -1.78008 22,325 142 371 -832
2017-09-21 09:16:56 GMT 50.38380 -1.78347 22,350 145 368 -832
2017-09-21 09:16:55 GMT 50.38446 -1.78424 22,350 143 371 -832
2017-09-21 09:16:53 GMT 50.38573 -1.78564 22,375 145 369 -832
2017-09-21 09:16:51 GMT 50.38998 -1.79012 22,400 146 368 -768
2017-09-21 09:16:49 GMT 50.39140 -1.79157 22,425 151 365 -832
2017-09-21 09:16:47 GMT 50.39592 -1.79574 22,475 151 365 -832
2017-09-21 09:16:44 GMT 50.39885 -1.79834 22,500 151 364 -832
2017-09-21 09:16:42 GMT 50.40262 -1.80132 22,525 154 363 -832
2017-09-21 09:16:39 GMT 50.40867 -1.80577 22,575 157 361 -832
2017-09-21 09:16:36 GMT 50.41249 -1.80822 22,625 159 359 -768
2017-09-21 09:16:34 GMT 50.41484 -1.80964 22,625 160 359 -768
2017-09-21 09:16:31 GMT 50.41919 -1.81202 22,675 163 357 -768
2017-09-21 09:16:31 GMT 50.41919 -1.81202 22,675 163 357 -768
2017-09-21 09:16:29 GMT 50.42222 -1.81349 22,700 163 357 -768
2017-09-21 09:16:27 GMT 50.42697 -1.81557 22,725 166 355 -768
2017-09-21 09:16:25 GMT 50.42871 -1.81621 22,750 166 355 -768
2017-09-21 09:16:23 GMT 50.43187 -1.81737 22,775 167 353 -704
2017-09-21 09:16:21 GMT 50.43443 -1.81817 22,800 171 352 -832
2017-09-21 09:16:19 GMT 50.43860 -1.81925 22,825 178 348 -640
2017-09-21 09:16:15 GMT 50.44521 -1.82054 22,900 174 349 -832
2017-09-21 09:16:15 GMT 50.44521 -1.82054 22,900 174 349 -832
2017-09-21 09:16:13 GMT 50.44810 -1.82091 22,925 177 348 -704
2017-09-21 09:16:10 GMT 50.45270 -1.82134 22,950 178 348 -576
2017-09-21 09:16:07 GMT 50.45760 -1.82142 22,975 182 347 -192
2017-09-21 09:16:04 GMT 50.46460 -1.82098 23,000 185 345 0
2017-09-21 09:16:02 GMT 50.46620 -1.82077 23,000 185 346 0
2017-09-21 09:16:00 GMT 50.46909 -1.82041 23,000 187 346 0
2017-09-21 09:16:00 GMT 50.46909 -1.82041 23,000 189 345 0
2017-09-21 09:16:00 GMT 50.46909 -1.82041 23,000 187 346 0
2017-09-21 09:15:56 GMT 50.47622 -1.81883 23,000 190 345 0
2017-09-21 09:15:53 GMT 50.47994 -1.81772 23,000 193 345 0
2017-09-21 09:15:51 GMT 50.48323 -1.81665 23,000 195 345 0
2017-09-21 09:15:49 GMT 50.48711 -1.81512 23,000 195 345 0
2017-09-21 09:15:49 GMT 50.48711 -1.81512 23,000 197 345 0
2017-09-21 09:15:47 GMT 50.48850 -1.81448 23,000 196 345 0
2017-09-21 09:15:45 GMT 50.49248 -1.81267 23,000 199 345 0
2017-09-21 09:15:43 GMT 50.49701 -1.81014 22,975 202 346 0
2017-09-21 09:15:41 GMT 50.49760 -1.80985 22,975 201 346 0
2017-09-21 09:15:39 GMT 50.50118 -1.80761 22,975 204 345 0
2017-09-21 09:15:37 GMT 50.50424 -1.80554 22,975 204 346 0
2017-09-21 09:15:37 GMT 50.50373 -1.80591 22,975 204 346 0
2017-09-21 09:15:34 GMT 50.50845 -1.80248 22,975 210 346 0
2017-09-21 09:15:32 GMT 50.51146 -1.80005 22,975 209 346 0
2017-09-21 09:15:30 GMT 50.51440 -1.79757 22,975 210 346 0
2017-09-21 09:15:28 GMT 50.51857 -1.79381 22,975 210 346 0
2017-09-21 09:15:26 GMT 50.51912 -1.79323 23,000 212 347 0
2017-09-21 09:15:24 GMT 50.52319 -1.78925 23,000 213 348 0
2017-09-21 09:15:21 GMT 50.52672 -1.78571 23,000 214 348 0
2017-09-21 09:15:21 GMT 50.52672 -1.78571 23,000 214 348 0
2017-09-21 09:15:19 GMT 50.52965 -1.78268 22,975 214 348 0
2017-09-21 09:15:17 GMT 50.53222 -1.78001 23,000 214 348 0
2017-09-21 09:15:15 GMT 50.53560 -1.77660 22,975 214 348 0
2017-09-21 09:15:12 GMT 50.53967 -1.77241 23,000 214 349 0
2017-09-21 09:15:10 GMT 50.54324 -1.76873 23,000 214 349 0
2017-09-21 09:15:08 GMT 50.54384 -1.76815 23,000 214 349 0
2017-09-21 09:15:06 GMT 50.54695 -1.76497 23,000 214 350 64
2017-09-21 09:15:04 GMT 50.54997 -1.76193 23,000 214 350 64
2017-09-21 09:15:02 GMT 50.55228 -1.75959 22,975 213 351 0
2017-09-21 09:15:00 GMT 50.55633 -1.75544 22,975 213 351 0
2017-09-21 09:14:58 GMT 50.55895 -1.75283 22,975 213 351 0
2017-09-21 09:14:56 GMT 50.56043 -1.75128 22,975 213 352 0
2017-09-21 09:14:54 GMT 50.56412 -1.74755 22,975 213 351 0
2017-09-21 09:14:52 GMT 50.56620 -1.74549 23,000 213 352 0
2017-09-21 09:14:50 GMT 50.56811 -1.74356 22,975 213 352 0
2017-09-21 09:14:48 GMT 50.57142 -1.74029 22,975 213 352 0
2017-09-21 09:14:46 GMT 50.57346 -1.73822 22,975 213 352 0
2017-09-21 09:14:45 GMT 50.57691 -1.73480 22,975 213 355 0
2017-09-21 09:14:45 GMT 50.57691 -1.73480 22,975 213 355 0
2017-09-21 09:14:43 GMT 50.57762 -1.73410 22,975 213 353 0
2017-09-21 09:14:41 GMT 50.58037 -1.73136 22,975 213 353 0
2017-09-21 09:14:39 GMT 50.58458 -1.72709 22,975 213 354 0
2017-09-21 09:14:37 GMT 50.58669 -1.72500 22,975 213 355 0
2017-09-21 09:14:37 GMT 50.58669 -1.72500 22,975 213 355 0
2017-09-21 09:14:35 GMT 50.58893 -1.72276 22,975 213 355 0
2017-09-21 09:14:33 GMT 50.59400 -1.71758 22,975 214 356 0
2017-09-21 09:14:31 GMT 50.59470 -1.71683 22,975 214 356 0
2017-09-21 09:14:29 GMT 50.59763 -1.71387 22,975 214 357 0
2017-09-21 09:14:27 GMT 50.60121 -1.71016 22,975 214 358 0
2017-09-21 09:14:25 GMT 50.60298 -1.70830 22,975 214 358 0
2017-09-21 09:14:23 GMT 50.60563 -1.70563 22,975 214 360 0
2017-09-21 09:14:21 GMT 50.60954 -1.70155 22,975 214 363 0
2017-09-21 09:14:19 GMT 50.61081 -1.70028 22,975 214 361 0
2017-09-21 09:14:17 GMT 50.61541 -1.69546 22,975 214 364 0
2017-09-21 09:14:15 GMT 50.61749 -1.69334 22,975 214 364 0
2017-09-21 09:14:12 GMT 50.62088 -1.68980 22,975 214 366 0
2017-09-21 09:14:10 GMT 50.62495 -1.68551 22,975 214 367 0
2017-09-21 09:14:08 GMT 50.62775 -1.68264 22,975 214 369 -64
2017-09-21 09:14:06 GMT 50.62975 -1.68046 22,975 214 369 -64
2017-09-21 09:14:06 GMT 50.62975 -1.68046 22,975 214 369 -64
2017-09-21 09:14:03 GMT 50.63459 -1.67542 23,000 214 371 -64
2017-09-21 09:14:01 GMT 50.63672 -1.67317 23,000 215 371 -64
2017-09-21 09:13:59 GMT 50.63887 -1.67089 23,000 214 372 0
2017-09-21 09:13:57 GMT 50.64255 -1.66695 23,000 215 374 0
2017-09-21 09:13:55 GMT 50.64674 -1.66255 23,000 215 375 0
2017-09-21 09:13:53 GMT 50.64931 -1.65980 23,000 215 375 64
2017-09-21 09:13:50 GMT 50.65288 -1.65597 22,975 215 378 128
2017-09-21 09:13:48 GMT 50.65507 -1.65366 22,975 215 378 128
2017-09-21 09:13:46 GMT 50.65898 -1.64943 22,975 215 380 0
2017-09-21 09:13:43 GMT 50.66295 -1.64528 22,975 215 381 -64
2017-09-21 09:13:41 GMT 50.66597 -1.64201 22,975 215 382 -128
2017-09-21 09:13:39 GMT 50.66992 -1.63785 23,000 214 384 -128
2017-09-21 09:13:37 GMT 50.67365 -1.63391 23,000 214 384 -192
2017-09-21 09:13:37 GMT 50.67276 -1.63483 23,000 214 384 -192
2017-09-21 09:13:35 GMT 50.67494 -1.63251 23,000 214 384 -256
2017-09-21 09:13:32 GMT 50.67895 -1.62834 23,000 214 385 -256
2017-09-21 09:13:30 GMT 50.68355 -1.62353 23,025 214 386 -256
2017-09-21 09:13:27 GMT 50.68652 -1.62041 23,025 214 386 -128
2017-09-21 09:13:27 GMT 50.68652 -1.62041 23,025 214 386 -128
2017-09-21 09:13:24 GMT 50.69082 -1.61591 23,025 214 387 128
2017-09-21 09:13:22 GMT 50.69595 -1.61064 23,025 214 389 832
2017-09-21 09:13:19 GMT 50.69893 -1.60751 23,000 214 391 1088
2017-09-21 09:13:17 GMT 50.70251 -1.60370 22,975 214 391 896
2017-09-21 09:13:15 GMT 50.70479 -1.60141 22,950 214 391 640
2017-09-21 09:13:13 GMT 50.70721 -1.59881 22,925 214 391 320
2017-09-21 09:13:11 GMT 50.71089 -1.59492 22,925 214 391 0
2017-09-21 09:13:09 GMT 50.71491 -1.59079 22,900 214 391 -64
2017-09-21 09:13:06 GMT 50.71787 -1.58768 22,925 214 389 -128
2017-09-21 09:13:04 GMT 50.72239 -1.58302 22,925 214 388 -256
2017-09-21 09:13:02 GMT 50.72448 -1.58081 22,925 214 386 448
2017-09-21 09:13:00 GMT 50.72612 -1.57914 22,925 214 387 -64
2017-09-21 09:12:58 GMT 50.72984 -1.57524 22,925 214 386 576
2017-09-21 09:12:55 GMT 50.73445 -1.57045 22,900 214 386 704
2017-09-21 09:12:52 GMT 50.74100 -1.56362 22,850 214 384 832
2017-09-21 09:12:50 GMT 50.74159 -1.56303 22,850 214 384 832
2017-09-21 09:12:48 GMT 50.74678 -1.55762 22,800 214 384 832
2017-09-21 09:12:46 GMT 50.74873 -1.55560 22,775 214 383 832
2017-09-21 09:12:44 GMT 50.75185 -1.55235 22,750 214 384 832
2017-09-21 09:12:42 GMT 50.75335 -1.55075 22,725 214 384 832
2017-09-21 09:12:42 GMT 50.75335 -1.55075 22,725 214 384 832
2017-09-21 09:12:40 GMT 50.75809 -1.54579 22,675 214 384 832
2017-09-21 09:12:38 GMT 50.76009 -1.54373 22,675 214 383 832
2017-09-21 09:12:35 GMT 50.76384 -1.53987 22,625 214 383 832
2017-09-21 09:12:33 GMT 50.76666 -1.53694 22,600 214 383 832
2017-09-21 09:12:31 GMT 50.77108 -1.53229 22,575 214 383 832
2017-09-21 09:12:29 GMT 50.77240 -1.53089 22,550 214 383 832
2017-09-21 09:12:27 GMT 50.77522 -1.52794 22,525 214 383 768
2017-09-21 09:12:24 GMT 50.78128 -1.52168 22,475 214 382 768
2017-09-21 09:12:22 GMT 50.78351 -1.51932 22,450 214 382 768
2017-09-21 09:12:19 GMT 50.78686 -1.51582 22,425 214 382 768
2017-09-21 09:12:17 GMT 50.79194 -1.51047 22,375 214 381 704
2017-09-21 09:12:15 GMT 50.79332 -1.50906 22,375 214 382 768
2017-09-21 09:12:13 GMT 50.79650 -1.50574 22,350 214 381 704
2017-09-21 09:12:11 GMT 50.79968 -1.50246 22,325 214 381 704
2017-09-21 09:12:08 GMT 50.80481 -1.49711 22,275 214 381 768
2017-09-21 09:12:06 GMT 50.80818 -1.49361 22,250 214 381 768
2017-09-21 09:12:06 GMT 50.80818 -1.49361 22,250 214 381 768
2017-09-21 09:12:03 GMT 50.81139 -1.49017 22,225 214 381 768
2017-09-21 09:12:01 GMT 50.81433 -1.48712 22,200 214 381 768
2017-09-21 09:11:58 GMT 50.82052 -1.48071 22,125 214 381 768
2017-09-21 09:11:56 GMT 50.82345 -1.47766 22,100 214 381 768
2017-09-21 09:11:54 GMT 50.82477 -1.47633 22,100 214 381 704
2017-09-21 09:11:53 GMT 50.82623 -1.47477 22,075 214 381 768
2017-09-21 09:11:52 GMT 50.82699 -1.47400 22,075 214 381 768
2017-09-21 09:11:50 GMT 50.83225 -1.46851 22,025 214 381 832
2017-09-21 09:11:47 GMT 50.83594 -1.46467 22,000 214 381 768
2017-09-21 09:11:45 GMT 50.83946 -1.46096 21,975 214 381 768
2017-09-21 09:11:43 GMT 50.84038 -1.46007 21,950 214 381 768
2017-09-21 09:11:41 GMT 50.84271 -1.45762 21,925 214 381 768
2017-09-21 09:11:39 GMT 50.84660 -1.45354 21,900 214 381 832
2017-09-21 09:11:36 GMT 50.85155 -1.44841 21,850 214 381 768
2017-09-21 09:11:34 GMT 50.85301 -1.44686 21,850 214 381 768
2017-09-21 09:11:32 GMT 50.85686 -1.44285 21,800 214 381 832
2017-09-21 09:11:29 GMT 50.86157 -1.43795 21,775 214 381 832
2017-09-21 09:11:24 GMT 50.86835 -1.43090 21,700 214 381 768
2017-09-21 09:11:22 GMT 50.87117 -1.42799 21,675 214 381 832
2017-09-21 09:11:20 GMT 50.87438 -1.42464 21,650 214 380 832
2017-09-21 09:11:18 GMT 50.87764 -1.42128 21,625 214 381 832
2017-09-21 09:11:16 GMT 50.88057 -1.41815 21,600 214 380 832
2017-09-21 09:11:14 GMT 50.88368 -1.41501 21,550 214 380 832
2017-09-21 09:11:14 GMT 50.88368 -1.41501 21,550 214 380 832
2017-09-21 09:11:12 GMT 50.88648 -1.41205 21,525 214 380 832
2017-09-21 09:11:09 GMT 50.89256 -1.40573 21,475 214 379 832
2017-09-21 09:11:05 GMT 50.89774 -1.40039 21,425 214 378 832
2017-09-21 09:11:03 GMT 50.89845 -1.39961 21,425 214 378 832
2017-09-21 09:11:00 GMT 50.90588 -1.39185 21,350 214 376 832
2017-09-21 09:10:58 GMT 50.90659 -1.39114 21,350 214 375 768
2017-09-21 09:10:55 GMT 50.91237 -1.38504 21,300 214 373 704
2017-09-21 09:10:53 GMT 50.91508 -1.38220 21,275 214 370 832
2017-09-21 09:10:50 GMT 50.91753 -1.37970 21,250 214 370 832
2017-09-21 09:10:49 GMT 50.92108 -1.37589 21,200 214 368 1344
2017-09-21 09:10:48 GMT 50.92108 -1.37589 21,200 214 368 1344
2017-09-21 09:10:47 GMT 50.92238 -1.37459 21,200 214 368 1344
2017-09-21 09:10:44 GMT 50.92717 -1.36948 21,100 214 366 1984
2017-09-21 09:10:42 GMT 50.92996 -1.36650 21,025 215 365 2304
2017-09-21 09:10:40 GMT 50.93198 -1.36431 20,975 215 365 2368
2017-09-21 09:10:38 GMT 50.93564 -1.36040 20,875 215 365 2432
2017-09-21 09:10:36 GMT 50.93695 -1.35895 20,825 215 365 2688
2017-09-21 09:10:33 GMT 50.94292 -1.35251 20,650 215 365 2816
2017-09-21 09:10:33 GMT 50.94292 -1.35251 20,650 215 365 2752
2017-09-21 09:10:32 GMT 50.94292 -1.35251 20,650 215 365 2752
2017-09-21 09:10:30 GMT 50.94640 -1.34872 20,550 215 365 2816
2017-09-21 09:10:27 GMT 50.95015 -1.34456 20,425 215 365 2752
2017-09-21 09:10:24 GMT 50.95580 -1.33835 20,250 217 365 2624
2017-09-21 09:10:24 GMT 50.95580 -1.33835 20,250 217 365 2624
2017-09-21 09:10:23 GMT 50.95636 -1.33774 20,225 217 365 2624
2017-09-21 09:10:21 GMT 50.95906 -1.33453 20,125 220 365 2560
2017-09-21 09:10:19 GMT 50.96104 -1.33202 20,075 220 365 2560
2017-09-21 09:10:17 GMT 50.96416 -1.32794 19,975 223 366 2496
2017-09-21 09:10:17 GMT 50.96483 -1.32706 19,950 222 365 2496
2017-09-21 09:10:17 GMT 50.96530 -1.32637 19,925 223 366 2496
2017-09-21 09:10:15 GMT 50.96768 -1.32289 19,850 224 366 2432
2017-09-21 09:10:13 GMT 50.96879 -1.32126 19,825 225 365 2432
2017-09-21 09:10:11 GMT 50.97186 -1.31638 19,725 228 365 2304
2017-09-21 09:10:09 GMT 50.97377 -1.31309 19,650 229 366 2240
2017-09-21 09:10:07 GMT 50.97707 -1.30714 19,550 236 367 2112
2017-09-21 09:10:05 GMT 50.97773 -1.30585 19,525 231 366 2112
2017-09-21 09:10:03 GMT 50.98032 -1.30062 19,450 236 367 2112
2017-09-21 09:10:01 GMT 50.98280 -1.29517 19,350 236 367 2112
2017-09-21 09:09:59 GMT 50.98517 -1.28963 19,275 238 366 2176
2017-09-21 09:09:56 GMT 50.98685 -1.28532 19,200 240 366 2240
2017-09-21 09:09:54 GMT 50.98814 -1.28184 19,125 241 366 2304
2017-09-21 09:09:52 GMT 50.99121 -1.27286 19,000 244 367 2432
2017-09-21 09:09:50 GMT 50.99226 -1.26952 18,925 245 366 2560
2017-09-21 09:09:48 GMT 50.99323 -1.26633 18,875 247 367 2624
2017-09-21 09:09:46 GMT 50.99506 -1.25972 18,750 249 367 2752
2017-09-21 09:09:45 GMT 50.99537 -1.25847 18,750 249 367 2752
2017-09-21 09:09:45 GMT 50.99506 -1.25972 18,750 249 367 2752
2017-09-21 09:09:43 GMT 50.99670 -1.25318 18,650 251 368 2752
2017-09-21 09:09:41 GMT 50.99774 -1.24847 18,550 253 368 2688
2017-09-21 09:09:40 GMT 50.99858 -1.24450 18,500 253 369 2624
2017-09-21 09:09:39 GMT 50.99886 -1.24306 18,475 253 369 2624
2017-09-21 09:09:39 GMT 50.99886 -1.24306 18,475 253 369 2624
2017-09-21 09:09:38 GMT 50.99959 -1.23938 18,400 255 369 2432
2017-09-21 09:09:37 GMT 50.99979 -1.23810 18,400 255 369 2432
2017-09-21 09:09:35 GMT 51.00096 -1.23070 18,275 256 370 2368
2017-09-21 09:09:33 GMT 51.00133 -1.22832 18,250 257 370 2304
2017-09-21 09:09:31 GMT 51.00188 -1.22409 18,175 261 370 2304
2017-09-21 09:09:29 GMT 51.00282 -1.21529 18,050 263 370 2304
2017-09-21 09:09:26 GMT 51.00330 -1.20961 17,975 263 370 2368
2017-09-21 09:09:24 GMT 51.00366 -1.20530 17,925 264 366 2368
2017-09-21 09:09:22 GMT 51.00422 -1.19804 17,800 264 369 2432
2017-09-21 09:09:20 GMT 51.00453 -1.19291 17,725 264 369 2368
2017-09-21 09:09:18 GMT 51.00491 -1.18782 17,650 264 368 2368
2017-09-21 09:09:16 GMT 51.00529 -1.18248 17,575 264 367 2368
2017-09-21 09:09:14 GMT 51.00563 -1.17687 17,500 264 367 2304
2017-09-21 09:09:12 GMT 51.00604 -1.17101 17,425 264 366 2368
2017-09-21 09:09:10 GMT 51.00623 -1.16841 17,375 264 366 2368
2017-09-21 09:09:08 GMT 51.00682 -1.15928 17,250 264 362 2432
2017-09-21 09:09:06 GMT 51.00710 -1.15532 17,200 265 363 2368
2017-09-21 09:09:04 GMT 51.00747 -1.14944 17,100 264 362 2368
2017-09-21 09:09:02 GMT 51.00783 -1.14443 17,025 265 362 2432
2017-09-21 09:09:00 GMT 51.00817 -1.13892 16,950 265 360 2624
2017-09-21 09:08:58 GMT 51.00842 -1.13493 16,875 265 360 2688
2017-09-21 09:08:56 GMT 51.00897 -1.12654 16,750 264 360 2688
2017-09-21 09:08:54 GMT 51.00925 -1.12231 16,675 264 358 2752
2017-09-21 09:08:53 GMT 51.00934 -1.12099 16,650 265 359 2752
2017-09-21 09:08:51 GMT 51.00961 -1.11679 16,575 264 360 2752
2017-09-21 09:08:49 GMT 51.00998 -1.11133 16,475 264 359 2752
2017-09-21 09:08:47 GMT 51.01035 -1.10606 16,400 264 358 2752
2017-09-21 09:08:45 GMT 51.01071 -1.10086 16,300 264 357 2816
2017-09-21 09:08:45 GMT 51.01071 -1.10086 16,300 264 359 2752
2017-09-21 09:08:43 GMT 51.01106 -1.09535 16,200 264 358 2752
2017-09-21 09:08:41 GMT 51.01140 -1.09047 16,125 264 358 2752
2017-09-21 09:08:39 GMT 51.01195 -1.08282 16,000 264 357 2880
2017-09-21 09:08:36 GMT 51.01218 -1.07896 15,925 264 356 2944
2017-09-21 09:08:34 GMT 51.01268 -1.07169 15,775 264 356 2944
2017-09-21 09:08:32 GMT 51.01306 -1.06628 15,675 264 356 2944
2017-09-21 09:08:29 GMT 51.01369 -1.05721 15,500 264 356 3008
2017-09-21 09:08:27 GMT 51.01387 -1.05461 15,450 264 355 3008
2017-09-21 09:08:24 GMT 51.01460 -1.04370 15,250 264 355 3008
2017-09-21 09:08:22 GMT 51.01492 -1.03882 15,150 264 354 3008
2017-09-21 09:08:20 GMT 51.01511 -1.03598 15,100 264 354 3008
2017-09-21 09:08:18 GMT 51.01543 -1.03130 15,025 264 354 3008
2017-09-21 09:08:16 GMT 51.01575 -1.02722 14,950 264 354 3008
2017-09-21 09:08:14 GMT 51.01618 -1.02074 14,825 264 354 3008
2017-09-21 09:08:12 GMT 51.01653 -1.01534 14,725 264 353 3008
2017-09-21 09:08:12 GMT 51.01653 -1.01534 14,725 264 353 3008
2017-09-21 09:08:09 GMT 51.01717 -1.00644 14,550 264 353 3008
2017-09-21 09:08:07 GMT 51.01743 -1.00220 14,450 264 353 3072
2017-09-21 09:08:02 GMT 51.01837 -0.98839 14,175 264 351 3008
2017-09-21 09:08:00 GMT 51.01874 -0.98274 14,075 264 351 3008
2017-09-21 09:07:58 GMT 51.01909 -0.97786 14,000 264 351 2880
2017-09-21 09:07:58 GMT 51.01909 -0.97786 14,000 264 351 2880
2017-09-21 09:07:56 GMT 51.01927 -0.97526 13,950 264 351 2816
2017-09-21 09:07:56 GMT 51.01927 -0.97526 13,950 264 351 2816
2017-09-21 09:07:54 GMT 51.01959 -0.97014 13,850 264 351 2688
2017-09-21 09:07:52 GMT 51.02014 -0.96169 13,700 265 350 2752
2017-09-21 09:07:50 GMT 51.02037 -0.95841 13,650 265 349 2752
2017-09-21 09:07:48 GMT 51.02083 -0.95173 13,525 265 348 2816
2017-09-21 09:07:46 GMT 51.02097 -0.94920 13,475 265 348 2816
2017-09-21 09:07:43 GMT 51.02147 -0.94156 13,350 265 348 2752
2017-09-21 09:07:41 GMT 51.02188 -0.93554 13,225 265 347 2752
2017-09-21 09:07:38 GMT 51.02234 -0.92857 13,100 265 346 2752
2017-09-21 09:07:36 GMT 51.02289 -0.92033 12,950 265 345 2752
2017-09-21 09:07:33 GMT 51.02325 -0.91424 12,850 265 345 2688
2017-09-21 09:07:31 GMT 51.02358 -0.90927 12,750 265 344 2688
2017-09-21 09:07:29 GMT 51.02376 -0.90674 12,725 265 344 2624
2017-09-21 09:07:27 GMT 51.02419 -0.89996 12,600 265 342 2560
2017-09-21 09:07:25 GMT 51.02440 -0.89620 12,525 265 342 2560
2017-09-21 09:07:25 GMT 51.02440 -0.89620 12,525 265 342 2560
2017-09-21 09:07:23 GMT 51.02470 -0.89195 12,450 265 341 2432
2017-09-21 09:07:21 GMT 51.02516 -0.88448 12,350 265 341 2432
2017-09-21 09:07:21 GMT 51.02516 -0.88448 12,350 265 340 2368
2017-09-21 09:07:19 GMT 51.02530 -0.88196 12,300 265 340 2368
2017-09-21 09:07:17 GMT 51.02577 -0.87448 12,175 265 339 2240
2017-09-21 09:07:15 GMT 51.02595 -0.87105 12,125 265 337 2112
2017-09-21 09:07:12 GMT 51.02656 -0.86166 12,000 265 336 1984
2017-09-21 09:07:09 GMT 51.02683 -0.85701 11,950 265 334 1856
2017-09-21 09:07:05 GMT 51.02758 -0.84465 11,800 265 330 1664
2017-09-21 09:07:02 GMT 51.02783 -0.84060 11,750 265 327 1536
2017-09-21 09:07:00 GMT 51.02834 -0.83199 11,650 265 324 1472
2017-09-21 09:06:58 GMT 51.02856 -0.82848 11,625 265 320 1472
2017-09-21 09:06:55 GMT 51.02912 -0.82001 11,525 264 316 1536
2017-09-21 09:06:53 GMT 51.02926 -0.81772 11,500 264 316 1536
2017-09-21 09:06:50 GMT 51.02982 -0.81039 11,425 263 313 1600
2017-09-21 09:06:48 GMT 51.03000 -0.80810 11,400 263 310 1600
2017-09-21 09:06:48 GMT 51.03000 -0.80810 11,400 263 310 1600
2017-09-21 09:06:45 GMT 51.03076 -0.79933 11,300 261 306 1664
2017-09-21 09:06:43 GMT 51.03122 -0.79506 11,250 260 303 1728
2017-09-21 09:06:41 GMT 51.03154 -0.79201 11,200 259 298 1792
2017-09-21 09:06:39 GMT 51.03204 -0.78790 11,150 259 298 1792
2017-09-21 09:06:37 GMT 51.03291 -0.78144 11,050 258 297 1856
2017-09-21 09:06:34 GMT 51.03397 -0.77342 10,925 258 291 2048
2017-09-21 09:06:32 GMT 51.03438 -0.77045 10,875 258 292 2048
2017-09-21 09:06:28 GMT 51.03566 -0.76088 10,725 258 288 2048
2017-09-21 09:06:25 GMT 51.03606 -0.75783 10,675 259 287 2048
2017-09-21 09:06:23 GMT 51.03694 -0.75145 10,575 259 283 1664
2017-09-21 09:06:21 GMT 51.03769 -0.74554 10,500 259 283 1600
2017-09-21 09:06:19 GMT 51.03769 -0.74554 10,500 259 283 1600
2017-09-21 09:06:17 GMT 51.03859 -0.73883 10,425 259 280 1152
2017-09-21 09:06:15 GMT 51.03882 -0.73683 10,400 259 280 1152
2017-09-21 09:06:13 GMT 51.03964 -0.73074 10,350 259 279 960
2017-09-21 09:06:11 GMT 51.03973 -0.73000 10,325 259 278 960
2017-09-21 09:06:09 GMT 51.04066 -0.72273 10,275 259 277 896
2017-09-21 09:06:07 GMT 51.04092 -0.72079 10,250 259 277 896
2017-09-21 09:06:06 GMT 51.04143 -0.71678 10,225 259 276 832
2017-09-21 09:06:05 GMT 51.04164 -0.71503 10,225 259 276 832
2017-09-21 09:06:05 GMT 51.04164 -0.71503 10,225 259 277 896
2017-09-21 09:06:03 GMT 51.04192 -0.71304 10,200 259 276 832
2017-09-21 09:06:01 GMT 51.04243 -0.70900 10,175 259 276 832
2017-09-21 09:05:59 GMT 51.04317 -0.70327 10,150 259 275 768
2017-09-21 09:05:56 GMT 51.04385 -0.69771 10,100 259 275 704
2017-09-21 09:05:54 GMT 51.04422 -0.69496 10,100 259 275 640
2017-09-21 09:05:52 GMT 51.04490 -0.68962 10,050 259 275 576
2017-09-21 09:05:50 GMT 51.04518 -0.68764 10,050 259 275 640
2017-09-21 09:05:48 GMT 51.04568 -0.68345 10,025 259 275 640
2017-09-21 09:05:46 GMT 51.04619 -0.67952 10,000 259 275 576
2017-09-21 09:05:44 GMT 51.04660 -0.67640 9,975 259 275 512
2017-09-21 09:05:42 GMT 51.04742 -0.67039 9,950 259 275 448
2017-09-21 09:05:40 GMT 51.04779 -0.66750 9,950 258 276 320
2017-09-21 09:05:38 GMT 51.04843 -0.66274 9,925 258 276 256
2017-09-21 09:05:36 GMT 51.04903 -0.65851 9,925 257 276 384
2017-09-21 09:05:34 GMT 51.04956 -0.65483 9,900 258 275 320
2017-09-21 09:05:32 GMT 51.05008 -0.65124 9,900 257 276 384
2017-09-21 09:05:30 GMT 51.05049 -0.64850 9,900 257 275 448
2017-09-21 09:05:28 GMT 51.05114 -0.64415 9,875 257 275 448
2017-09-21 09:05:26 GMT 51.05165 -0.64102 9,850 256 275 576
2017-09-21 09:05:24 GMT 51.05306 -0.63312 9,825 253 273 704
2017-09-21 09:05:21 GMT 51.05365 -0.63008 9,800 250 271 960
2017-09-21 09:05:18 GMT 51.05461 -0.62555 9,750 251 271 896
2017-09-21 09:05:16 GMT 51.05542 -0.62195 9,725 250 270 1088
2017-09-21 09:05:16 GMT 51.05542 -0.62195 9,725 249 270 1152
2017-09-21 09:05:14 GMT 51.05676 -0.61657 9,675 248 269 1280
2017-09-21 09:05:12 GMT 51.05794 -0.61203 9,625 246 268 1600
2017-09-21 09:05:10 GMT 51.05882 -0.60900 9,575 245 267 1920
2017-09-21 09:05:08 GMT 51.05980 -0.60547 9,525 244 267 2048
2017-09-21 09:05:06 GMT 51.06064 -0.60280 9,475 244 267 2048
2017-09-21 09:05:06 GMT 51.06045 -0.60349 9,475 244 267 2048
2017-09-21 09:05:04 GMT 51.06171 -0.59942 9,400 244 266 2368
2017-09-21 09:05:02 GMT 51.06331 -0.59423 9,275 244 264 2688
2017-09-21 09:05:00 GMT 51.06394 -0.59235 9,225 244 263 2880
2017-09-21 09:04:58 GMT 51.06469 -0.58990 9,175 244 263 2880
2017-09-21 09:04:56 GMT 51.06608 -0.58540 9,050 244 262 3136
2017-09-21 09:04:56 GMT 51.06608 -0.58540 9,050 244 262 3136
2017-09-21 09:04:54 GMT 51.06753 -0.58090 8,900 244 261 3264
2017-09-21 09:04:51 GMT 51.06883 -0.57678 8,775 244 261 3328
2017-09-21 09:04:49 GMT 51.07036 -0.57181 8,625 244 260 3264
2017-09-21 09:04:48 GMT 51.07036 -0.57181 8,625 244 260 3264
2017-09-21 09:04:46 GMT 51.07169 -0.56773 8,500 244 260 3200
2017-09-21 09:04:44 GMT 51.07293 -0.56381 8,375 244 260 3200
2017-09-21 09:04:41 GMT 51.07432 -0.55939 8,225 244 260 3200
2017-09-21 09:04:39 GMT 51.07544 -0.55588 8,125 244 259 3264
2017-09-21 09:04:38 GMT 51.07600 -0.55412 8,075 244 259 3264
2017-09-21 09:04:37 GMT 51.07626 -0.55332 8,050 244 259 3264
2017-09-21 09:04:35 GMT 51.07741 -0.54961 7,925 244 259 3264
2017-09-21 09:04:33 GMT 51.07828 -0.54694 7,850 244 258 3136
2017-09-21 09:04:31 GMT 51.08011 -0.54115 7,650 244 258 3264
2017-09-21 09:04:28 GMT 51.08171 -0.53603 7,500 244 258 3200
2017-09-21 09:04:27 GMT 51.08171 -0.53603 7,500 244 258 3200
2017-09-21 09:04:25 GMT 51.08340 -0.53078 7,350 244 258 3136
2017-09-21 09:04:23 GMT 51.08400 -0.52898 7,275 244 258 3136
2017-09-21 09:04:21 GMT 51.08551 -0.52393 7,125 244 258 3200
2017-09-21 09:04:19 GMT 51.08596 -0.52269 7,100 244 258 3264
2017-09-21 09:04:17 GMT 51.08773 -0.51704 6,925 244 258 3328
2017-09-21 09:04:15 GMT 51.08849 -0.51472 6,825 244 257 3328
2017-09-21 09:04:13 GMT 51.08926 -0.51235 6,750 244 257 3200
2017-09-21 09:04:11 GMT 51.09050 -0.50834 6,625 244 257 3328
2017-09-21 09:04:09 GMT 51.09160 -0.50485 6,525 244 256 3392
2017-09-21 09:04:05 GMT 51.09439 -0.49583 6,250 244 256 3136
2017-09-21 09:04:03 GMT 51.09471 -0.49484 6,225 244 256 2752
2017-09-21 09:04:01 GMT 51.09574 -0.49156 6,125 244 256 2752
2017-09-21 09:03:59 GMT 51.09732 -0.48653 5,975 244 256 2688
2017-09-21 09:03:54 GMT 51.09927 -0.48019 5,800 244 255 2688
2017-09-21 09:03:52 GMT 51.10062 -0.47583 5,700 244 254 2688
2017-09-21 09:03:50 GMT 51.10144 -0.47323 5,625 245 254 2624
2017-09-21 09:03:48 GMT 51.10277 -0.46885 5,525 245 254 2432
2017-09-21 09:03:44 GMT 51.10515 -0.46098 5,325 245 253 2304
2017-09-21 09:03:42 GMT 51.10588 -0.45846 5,275 245 254 2240
2017-09-21 09:03:40 GMT 51.10657 -0.45608 5,225 245 254 2176
2017-09-21 09:03:38 GMT 51.10784 -0.45181 5,125 246 254 2048
2017-09-21 09:03:36 GMT 51.10849 -0.44945 5,075 246 253 1984
2017-09-21 09:03:33 GMT 51.10975 -0.44502 5,000 247 253 1728
2017-09-21 09:03:31 GMT 51.11101 -0.44042 4,925 251 254 1600
2017-09-21 09:03:29 GMT 51.11170 -0.43785 4,875 249 254 1600
2017-09-21 09:03:27 GMT 51.11302 -0.43233 4,800 251 255 1600
2017-09-21 09:03:22 GMT 51.11454 -0.42542 4,700 252 254 1536
2017-09-21 09:03:20 GMT 51.11524 -0.42191 4,650 253 254 1472
2017-09-21 09:03:18 GMT 51.11591 -0.41852 4,600 254 254 1408
2017-09-21 09:03:16 GMT 51.11687 -0.41310 4,525 255 254 1344
2017-09-21 09:03:13 GMT 51.11746 -0.40954 4,475 257 254 1472
2017-09-21 09:03:11 GMT 51.11810 -0.40508 4,425 257 254 1472
2017-09-21 09:03:09 GMT 51.11873 -0.40085 4,375 258 254 1408
2017-09-21 09:03:07 GMT 51.11902 -0.39885 4,350 258 254 1408
2017-09-21 09:03:05 GMT 51.11961 -0.39454 4,275 258 254 1472
2017-09-21 09:03:02 GMT 51.12041 -0.38895 4,200 258 254 1600
2017-09-21 09:02:59 GMT 51.12112 -0.38393 4,125 258 255 1536
2017-09-21 09:02:57 GMT 51.12148 -0.38139 4,100 258 255 1536
2017-09-21 09:02:57 GMT 51.12148 -0.38139 4,100 258 255 1536
2017-09-21 09:02:55 GMT 51.12246 -0.37483 4,025 258 254 1216
2017-09-21 09:02:53 GMT 51.12278 -0.37247 3,975 258 254 1152
2017-09-21 09:02:51 GMT 51.12329 -0.36873 3,950 258 254 1024
2017-09-21 09:02:48 GMT 51.12423 -0.36247 3,900 258 252 320
2017-09-21 09:02:47 GMT 51.12432 -0.36163 3,900 257 250 448
2017-09-21 09:02:42 GMT 51.12552 -0.35342 3,850 257 250 512
2017-09-21 09:02:40 GMT 51.12600 -0.35019 3,850 257 249 576
2017-09-21 09:02:36 GMT 51.12726 -0.34162 3,800 257 247 896
2017-09-21 09:02:34 GMT 51.12785 -0.33753 3,750 257 245 1088
2017-09-21 09:02:32 GMT 51.12870 -0.33203 3,700 259 200 1856
2017-09-21 09:02:30 GMT 51.12870 -0.33203 3,700 257 245 1088
2017-09-21 09:02:28 GMT 51.12927 -0.32796 3,675 257 243 1408
2017-09-21 09:02:25 GMT 51.13028 -0.32127 3,575 257 241 1664
2017-09-21 09:02:23 GMT 51.13074 -0.31838 3,525 257 239 2176
2017-09-21 09:02:21 GMT 51.13102 -0.31670 3,500 257 239 2304
2017-09-21 09:02:19 GMT 51.13168 -0.31235 3,400 257 239 2304
2017-09-21 09:02:16 GMT 51.13248 -0.30680 3,275 257 235 2752
2017-09-21 09:02:14 GMT 51.13316 -0.30212 3,150 257 234 2752
2017-09-21 09:02:11 GMT 51.13382 -0.29778 3,025 258 232 2560
2017-09-21 09:02:09 GMT 51.13405 -0.29602 2,975 258 231 2176
2017-09-21 09:02:05 GMT 51.13498 -0.28923 2,825 258 224 1664
2017-09-21 09:02:02 GMT 51.13577 -0.28327 2,725 258 224 1280
2017-09-21 09:02:00 GMT 51.13610 -0.28107 2,700 258 213 2048
2017-09-21 09:01:58 GMT 51.13641 -0.27844 2,650 258 213 2048
2017-09-21 09:01:54 GMT 51.13728 -0.27206 2,525 258 212 1856
2017-09-21 09:01:50 GMT 51.13829 -0.26493 2,350 259 200 1856
2017-09-21 09:01:48 GMT 51.13847 -0.26337 2,325 258 205 1984
2017-09-21 09:01:44 GMT 51.13934 -0.25684 2,150 259 200 1856
2017-09-21 09:01:40 GMT 51.14029 -0.24956 1,975 259 192 2048
2017-09-21 09:01:38 GMT 51.14049 -0.24794 1,925 259 193 2048
2017-09-21 09:01:32 GMT 51.14145 -0.24007 1,750 259 184 1856
2017-09-21 09:01:29 GMT 51.14186 -0.23650 1,650 259 182 2176
2017-09-21 09:01:27 GMT 51.14229 -0.23361 1,575 259 180 2176
2017-09-21 09:01:19 GMT 51.14373 -0.22232 1,175 259 176 3264
2017-09-21 09:01:17 GMT 51.14396 -0.22049 1,100 259 176 3776
2017-09-21 09:01:08 GMT 51.14539 -0.20970 625 258 174 3008
2017-09-21 09:01:06 GMT 51.14584 -0.20651 500 258 174 3328
2017-09-21 09:00:55 GMT 51.14766 -0.19354 0 255 175 0
2017-09-21 09:00:43 GMT 51.14950 -0.18055 0 258 130 0
2017-09-21 09:00:34 GMT 51.15046 -0.17361 0 258 84 0
2017-09-21 09:00:22 GMT 51.15110 -0.16901 0 258 25 0
2017-09-21 09:00:12 GMT 51.15120 -0.16810 0 171 6 0
2017-09-21 09:00:04 GMT 51.15125 -0.16787 0 165 6 0
2017-09-21 09:00:01 GMT 51.15129 -0.16777 0 171 7 0
2017-09-21 08:59:58 GMT 51.15137 -0.16776 0 171 8 0
2017-09-21 08:59:51 GMT 51.15162 -0.16784 0 168 10 0
2017-09-21 08:59:41 GMT 51.15203 -0.16798 0 165 10 0
2017-09-21 08:59:33 GMT 51.15229 -0.16808 0 0 7 0
2017-09-21 08:58:26 GMT 51.15272 -0.16821 0 0 4 0
2017-09-21 08:57:49 GMT 51.15292 -0.16904 0 0 5 0
2017-09-21 08:57:13 GMT 51.15279 -0.16997 0 0 3 0
2017-09-21 08:53:27 GMT 51.15275 -0.17025 0 168 0 0
2017-09-21 08:52:53 GMT 51.15274 -0.17023 0 168 0 0
2017-09-21 08:52:33 GMT 51.15275 -0.17023 0 168 0 0
2017-09-21 08:50:56 GMT 51.15273 -0.17038 0 0 3 0
2017-09-21 08:50:24 GMT 51.15266 -0.17083 0 168 3 0
2017-09-21 08:50:13 GMT 51.15265 -0.17096 0 168 2 0
2017-09-21 08:50:08 GMT 51.15264 -0.17101 0 0 2 0
2017-09-21 08:49:34 GMT 51.15258 -0.17136 0 168 7 0
2017-09-21 08:48:51 GMT 51.15243 -0.17258 0 168 2 0
2017-09-21 08:48:31 GMT 51.15243 -0.17265 0 168 2 0
2017-09-21 08:48:19 GMT 51.15243 -0.17277 0 168 2 0
2017-09-21 08:48:10 GMT 51.15243 -0.17286 0 168 3 0
2017-09-21 08:48:03 GMT 51.15244 -0.17302 0 168 4 0
2017-09-21 08:48:00 GMT 51.15246 -0.17309 0 168 5 0
2017-09-21 08:47:50 GMT 51.15266 -0.17338 0 168 7 0
2017-09-21 08:47:40 GMT 51.15296 -0.17352 0 168 9 0
2017-09-21 08:47:30 GMT 51.15338 -0.17366 0 168 11 0
2017-09-21 08:47:27 GMT 51.15348 -0.17368 0 165 11 0
2017-09-21 08:47:24 GMT 51.15366 -0.17376 0 168 11 0
2017-09-21 08:47:22 GMT 51.15372 -0.17378 0 168 11 0
2017-09-21 08:47:18 GMT 51.15389 -0.17384 0 165 11 0
2017-09-21 08:47:12 GMT 51.15416 -0.17393 0 168 11 0
2017-09-21 08:47:07 GMT 51.15438 -0.17401 0 168 11 0
2017-09-21 08:47:00 GMT 51.15476 -0.17415 0 168 11 0
2017-09-21 08:46:53 GMT 51.15501 -0.17424 0 165 11 0
2017-09-21 08:46:50 GMT 51.15515 -0.17427 0 165 11 0
2017-09-21 08:46:47 GMT 51.15529 -0.17433 0 168 11 0
2017-09-21 08:46:42 GMT 51.15554 -0.17441 0 168 10 0
2017-09-21 08:46:10 GMT 51.15686 -0.17487 0 171 9 0
2017-09-21 08:46:05 GMT 51.15702 -0.17493 0 168 8 0
2017-09-21 08:46:03 GMT 51.15711 -0.17494 0 171 8 0
2017-09-21 08:45:58 GMT 51.15724 -0.17496 0 205 8 0
2017-09-21 08:45:52 GMT 51.15744 -0.17495 0 199 8 0
2017-09-21 08:45:48 GMT 51.15757 -0.17485 0 222 9 0
2017-09-21 08:45:42 GMT 51.15769 -0.17456 0 255 9 0
2017-09-21 08:45:34 GMT 51.15776 -0.17412 0 255 9 0
2017-09-21 08:45:31 GMT 51.15778 -0.17396 0 255 9 0
2017-09-21 08:45:16 GMT 51.15792 -0.17294 0 258 11 0
2017-09-21 08:45:05 GMT 51.15802 -0.17218 0 255 10 0
2017-09-21 08:45:00 GMT 51.15807 -0.17187 0 255 10 0
2017-09-21 08:44:47 GMT 51.15819 -0.17112 0 241 9 0
2017-09-21 08:44:44 GMT 51.15825 -0.17098 0 225 9 0
2017-09-21 08:44:11 GMT 51.15920 -0.17033 0 0 8 0

Making use of Plane Finder data

You are free to use the raw flight data, aircraft information and images provided in this report for your own purposes provided the data is correctly attributed to Plane Finder. We ask that you please credit Plane Finder and link to planefinder.net in close proximity to the content.

Optionally one of the following logos (no smaller then 150x24px) can be used and must link to planefinder.net

Embedding the Plane Finder map

You are welcome to embed the Plane Finder playback map on your website to offer visitors a more interactive experience. We suggest using the following HTML code:

<iframe src="//planefinder.net/data/report/BY4406-G-OOBD-7700-squawk-2017-09-21/map" width="800" height="600" seamless="seamless"></iframe>

Where our data comes from

Plane Finder has a global network of data feeds and antenna radars that receive data broadcast directly from aircraft. The primary technologies used are ADS-B and MLAT. We also show feeds from the FAA and a FLARM glider feed.

Click here to find out more about the Plane Finder network.

How we collect our data